<?xml version="1.0" encoding="UTF-8"?>
<gpx version="1.1" creator="https://www.youtrack.es" xsi:schemaLocation="http://www.topografix.com/GPX/1/1 http://www.topografix.com/GPX/1/1/gpx.xsd http://www.garmin.com/xmlschemas/GpxExtensions/v3 http://www.garmin.com/xmlschemas/GpxExtensionsv3.xsd http://www.garmin.com/xmlschemas/TrackPointExtension/v1 http://www.garmin.com/xmlschemas/TrackPointExtensionv1.xsd" xmlns:gpxtpx="http://www.garmin.com/xmlschemas/TrackPointExtension/v1" xmlns:gpxx="http://www.garmin.com/xmlschemas/GpxExtensions/v3" xmlns:xsi="http://www.w3.org/2001/XMLSchema-instance">
  <metadata>
    <link href="https://www.youtrack.es">
      <text>YouTrack.es</text>
    </link>
    <time>2026-05-08T16:07:32Z</time>
  </metadata>
  <trk>
    <src>https://www.youtrack.es</src>
    <link href="https://www.youtrack.es/ruta/28107-notant-la-fred">
      <text>YouTrack.es</text>
    </link>
    <trkseg>
      <trkpt lat="41.7206350" lon="2.9352390">
        <ele>14.1</ele>
        <time>2021-12-20T07:10:25Z</time>
      </trkpt>
      <trkpt lat="41.7207010" lon="2.9352560">
        <ele>14.4</ele>
        <time>2021-12-20T07:10:30Z</time>
      </trkpt>
      <trkpt lat="41.7208770" lon="2.9353340">
        <ele>15.0</ele>
        <time>2021-12-20T07:10:35Z</time>
      </trkpt>
      <trkpt lat="41.7209160" lon="2.9353430">
        <ele>15.1</ele>
        <time>2021-12-20T07:10:36Z</time>
      </trkpt>
      <trkpt lat="41.7210470" lon="2.9354350">
        <ele>15.3</ele>
        <time>2021-12-20T07:10:41Z</time>
      </trkpt>
      <trkpt lat="41.7210870" lon="2.9355280">
        <ele>15.3</ele>
        <time>2021-12-20T07:10:44Z</time>
      </trkpt>
      <trkpt lat="41.7210890" lon="2.9355770">
        <ele>15.4</ele>
        <time>2021-12-20T07:10:45Z</time>
      </trkpt>
      <trkpt lat="41.7211070" lon="2.9356950">
        <ele>15.4</ele>
        <time>2021-12-20T07:10:48Z</time>
      </trkpt>
      <trkpt lat="41.7211450" lon="2.9358330">
        <ele>15.6</ele>
        <time>2021-12-20T07:10:52Z</time>
      </trkpt>
      <trkpt lat="41.7211770" lon="2.9358890">
        <ele>15.6</ele>
        <time>2021-12-20T07:10:54Z</time>
      </trkpt>
      <trkpt lat="41.7212150" lon="2.9359410">
        <ele>15.6</ele>
        <time>2021-12-20T07:10:56Z</time>
      </trkpt>
      <trkpt lat="41.7212360" lon="2.9360070">
        <ele>15.6</ele>
        <time>2021-12-20T07:10:58Z</time>
      </trkpt>
      <trkpt lat="41.7212840" lon="2.9361380">
        <ele>15.6</ele>
        <time>2021-12-20T07:11:02Z</time>
      </trkpt>
      <trkpt lat="41.7213690" lon="2.9363150">
        <ele>15.4</ele>
        <time>2021-12-20T07:11:08Z</time>
      </trkpt>
      <trkpt lat="41.7214050" lon="2.9363710">
        <ele>15.4</ele>
        <time>2021-12-20T07:11:10Z</time>
      </trkpt>
      <trkpt lat="41.7214490" lon="2.9364180">
        <ele>15.3</ele>
        <time>2021-12-20T07:11:12Z</time>
      </trkpt>
      <trkpt lat="41.7214810" lon="2.9364630">
        <ele>15.3</ele>
        <time>2021-12-20T07:11:14Z</time>
      </trkpt>
      <trkpt lat="41.7215410" lon="2.9365710">
        <ele>15.1</ele>
        <time>2021-12-20T07:11:18Z</time>
      </trkpt>
      <trkpt lat="41.7215890" lon="2.9366090">
        <ele>15.0</ele>
        <time>2021-12-20T07:11:20Z</time>
      </trkpt>
      <trkpt lat="41.7216040" lon="2.9366350">
        <ele>14.9</ele>
        <time>2021-12-20T07:11:21Z</time>
      </trkpt>
      <trkpt lat="41.7217120" lon="2.9368340">
        <ele>14.4</ele>
        <time>2021-12-20T07:11:28Z</time>
      </trkpt>
      <trkpt lat="41.7217420" lon="2.9368910">
        <ele>14.3</ele>
        <time>2021-12-20T07:11:30Z</time>
      </trkpt>
      <trkpt lat="41.7217800" lon="2.9369410">
        <ele>14.1</ele>
        <time>2021-12-20T07:11:32Z</time>
      </trkpt>
      <trkpt lat="41.7218400" lon="2.9370290">
        <ele>13.8</ele>
        <time>2021-12-20T07:11:35Z</time>
      </trkpt>
      <trkpt lat="41.7219900" lon="2.9371730">
        <ele>13.2</ele>
        <time>2021-12-20T07:11:42Z</time>
      </trkpt>
      <trkpt lat="41.7220130" lon="2.9371890">
        <ele>13.1</ele>
        <time>2021-12-20T07:11:43Z</time>
      </trkpt>
      <trkpt lat="41.7221420" lon="2.9372950">
        <ele>12.9</ele>
        <time>2021-12-20T07:11:49Z</time>
      </trkpt>
      <trkpt lat="41.7221700" lon="2.9373130">
        <ele>12.9</ele>
        <time>2021-12-20T07:11:50Z</time>
      </trkpt>
      <trkpt lat="41.7222550" lon="2.9374380">
        <ele>12.8</ele>
        <time>2021-12-20T07:11:54Z</time>
      </trkpt>
      <trkpt lat="41.7223220" lon="2.9376590">
        <ele>12.4</ele>
        <time>2021-12-20T07:12:00Z</time>
      </trkpt>
      <trkpt lat="41.7223330" lon="2.9376940">
        <ele>12.3</ele>
        <time>2021-12-20T07:12:01Z</time>
      </trkpt>
      <trkpt lat="41.7223630" lon="2.9378000">
        <ele>12.1</ele>
        <time>2021-12-20T07:12:04Z</time>
      </trkpt>
      <trkpt lat="41.7223820" lon="2.9378710">
        <ele>12.0</ele>
        <time>2021-12-20T07:12:06Z</time>
      </trkpt>
      <trkpt lat="41.7224120" lon="2.9380620">
        <ele>11.8</ele>
        <time>2021-12-20T07:12:11Z</time>
      </trkpt>
      <trkpt lat="41.7224270" lon="2.9381720">
        <ele>11.7</ele>
        <time>2021-12-20T07:12:14Z</time>
      </trkpt>
      <trkpt lat="41.7224480" lon="2.9382790">
        <ele>11.6</ele>
        <time>2021-12-20T07:12:17Z</time>
      </trkpt>
      <trkpt lat="41.7224440" lon="2.9385030">
        <ele>10.5</ele>
        <time>2021-12-20T07:12:23Z</time>
      </trkpt>
      <trkpt lat="41.7224400" lon="2.9387370">
        <ele>8.0</ele>
        <time>2021-12-20T07:12:30Z</time>
      </trkpt>
      <trkpt lat="41.7224190" lon="2.9388060">
        <ele>7.2</ele>
        <time>2021-12-20T07:12:32Z</time>
      </trkpt>
      <trkpt lat="41.7223710" lon="2.9388750">
        <ele>6.3</ele>
        <time>2021-12-20T07:12:35Z</time>
      </trkpt>
      <trkpt lat="41.7223760" lon="2.9388610">
        <ele>6.1</ele>
        <time>2021-12-20T07:12:37Z</time>
      </trkpt>
      <trkpt lat="41.7224400" lon="2.9387430">
        <ele>7.8</ele>
        <time>2021-12-20T07:12:41Z</time>
      </trkpt>
      <trkpt lat="41.7224470" lon="2.9387140">
        <ele>8.1</ele>
        <time>2021-12-20T07:12:42Z</time>
      </trkpt>
      <trkpt lat="41.7224540" lon="2.9386490">
        <ele>8.8</ele>
        <time>2021-12-20T07:12:44Z</time>
      </trkpt>
      <trkpt lat="41.7224440" lon="2.9385850">
        <ele>9.5</ele>
        <time>2021-12-20T07:12:46Z</time>
      </trkpt>
      <trkpt lat="41.7224390" lon="2.9385520">
        <ele>9.9</ele>
        <time>2021-12-20T07:12:47Z</time>
      </trkpt>
      <trkpt lat="41.7224310" lon="2.9384870">
        <ele>10.6</ele>
        <time>2021-12-20T07:12:49Z</time>
      </trkpt>
      <trkpt lat="41.7224050" lon="2.9383300">
        <ele>11.6</ele>
        <time>2021-12-20T07:12:54Z</time>
      </trkpt>
      <trkpt lat="41.7223950" lon="2.9381650">
        <ele>11.7</ele>
        <time>2021-12-20T07:12:59Z</time>
      </trkpt>
      <trkpt lat="41.7223480" lon="2.9379040">
        <ele>12.0</ele>
        <time>2021-12-20T07:13:07Z</time>
      </trkpt>
      <trkpt lat="41.7223430" lon="2.9378700">
        <ele>12.0</ele>
        <time>2021-12-20T07:13:08Z</time>
      </trkpt>
      <trkpt lat="41.7222820" lon="2.9376900">
        <ele>12.4</ele>
        <time>2021-12-20T07:13:14Z</time>
      </trkpt>
      <trkpt lat="41.7222620" lon="2.9376390">
        <ele>12.5</ele>
        <time>2021-12-20T07:13:16Z</time>
      </trkpt>
      <trkpt lat="41.7222170" lon="2.9375260">
        <ele>12.8</ele>
        <time>2021-12-20T07:13:20Z</time>
      </trkpt>
      <trkpt lat="41.7221870" lon="2.9374410">
        <ele>12.9</ele>
        <time>2021-12-20T07:13:23Z</time>
      </trkpt>
      <trkpt lat="41.7221650" lon="2.9373900">
        <ele>12.9</ele>
        <time>2021-12-20T07:13:25Z</time>
      </trkpt>
      <trkpt lat="41.7220430" lon="2.9372620">
        <ele>13.0</ele>
        <time>2021-12-20T07:13:31Z</time>
      </trkpt>
      <trkpt lat="41.7218870" lon="2.9371140">
        <ele>13.6</ele>
        <time>2021-12-20T07:13:39Z</time>
      </trkpt>
      <trkpt lat="41.7217730" lon="2.9369160">
        <ele>14.1</ele>
        <time>2021-12-20T07:13:47Z</time>
      </trkpt>
      <trkpt lat="41.7217390" lon="2.9368580">
        <ele>14.3</ele>
        <time>2021-12-20T07:13:49Z</time>
      </trkpt>
      <trkpt lat="41.7216100" lon="2.9366620">
        <ele>14.9</ele>
        <time>2021-12-20T07:13:57Z</time>
      </trkpt>
      <trkpt lat="41.7215040" lon="2.9365300">
        <ele>15.2</ele>
        <time>2021-12-20T07:14:03Z</time>
      </trkpt>
      <trkpt lat="41.7213680" lon="2.9363310">
        <ele>15.4</ele>
        <time>2021-12-20T07:14:11Z</time>
      </trkpt>
      <trkpt lat="41.7213560" lon="2.9363040">
        <ele>15.5</ele>
        <time>2021-12-20T07:14:12Z</time>
      </trkpt>
      <trkpt lat="41.7212450" lon="2.9360890">
        <ele>15.6</ele>
        <time>2021-12-20T07:14:20Z</time>
      </trkpt>
      <trkpt lat="41.7212190" lon="2.9360330">
        <ele>15.6</ele>
        <time>2021-12-20T07:14:22Z</time>
      </trkpt>
      <trkpt lat="41.7211120" lon="2.9358070">
        <ele>15.5</ele>
        <time>2021-12-20T07:14:30Z</time>
      </trkpt>
      <trkpt lat="41.7211040" lon="2.9357780">
        <ele>15.5</ele>
        <time>2021-12-20T07:14:31Z</time>
      </trkpt>
      <trkpt lat="41.7210280" lon="2.9355440">
        <ele>15.3</ele>
        <time>2021-12-20T07:14:39Z</time>
      </trkpt>
      <trkpt lat="41.7209980" lon="2.9354940">
        <ele>15.3</ele>
        <time>2021-12-20T07:14:41Z</time>
      </trkpt>
      <trkpt lat="41.7208460" lon="2.9353690">
        <ele>15.0</ele>
        <time>2021-12-20T07:14:48Z</time>
      </trkpt>
      <trkpt lat="41.7206910" lon="2.9352120">
        <ele>14.3</ele>
        <time>2021-12-20T07:14:56Z</time>
      </trkpt>
      <trkpt lat="41.7206210" lon="2.9349740">
        <ele>13.3</ele>
        <time>2021-12-20T07:15:03Z</time>
      </trkpt>
      <trkpt lat="41.7206130" lon="2.9349440">
        <ele>13.1</ele>
        <time>2021-12-20T07:15:04Z</time>
      </trkpt>
      <trkpt lat="41.7205990" lon="2.9347370">
        <ele>12.2</ele>
        <time>2021-12-20T07:15:10Z</time>
      </trkpt>
      <trkpt lat="41.7206230" lon="2.9344930">
        <ele>11.2</ele>
        <time>2021-12-20T07:15:17Z</time>
      </trkpt>
      <trkpt lat="41.7206120" lon="2.9344590">
        <ele>11.1</ele>
        <time>2021-12-20T07:15:18Z</time>
      </trkpt>
      <trkpt lat="41.7205310" lon="2.9343100">
        <ele>10.5</ele>
        <time>2021-12-20T07:15:23Z</time>
      </trkpt>
      <trkpt lat="41.7205000" lon="2.9342500">
        <ele>10.3</ele>
        <time>2021-12-20T07:15:25Z</time>
      </trkpt>
      <trkpt lat="41.7203830" lon="2.9340440">
        <ele>9.8</ele>
        <time>2021-12-20T07:15:32Z</time>
      </trkpt>
      <trkpt lat="41.7203460" lon="2.9339580">
        <ele>9.6</ele>
        <time>2021-12-20T07:15:35Z</time>
      </trkpt>
      <trkpt lat="41.7203200" lon="2.9339030">
        <ele>9.5</ele>
        <time>2021-12-20T07:15:37Z</time>
      </trkpt>
      <trkpt lat="41.7202680" lon="2.9338250">
        <ele>9.4</ele>
        <time>2021-12-20T07:15:40Z</time>
      </trkpt>
      <trkpt lat="41.7202140" lon="2.9337430">
        <ele>9.4</ele>
        <time>2021-12-20T07:15:43Z</time>
      </trkpt>
      <trkpt lat="41.7201210" lon="2.9336060">
        <ele>9.2</ele>
        <time>2021-12-20T07:15:48Z</time>
      </trkpt>
      <trkpt lat="41.7200520" lon="2.9334950">
        <ele>9.3</ele>
        <time>2021-12-20T07:15:52Z</time>
      </trkpt>
      <trkpt lat="41.7199310" lon="2.9334420">
        <ele>9.4</ele>
        <time>2021-12-20T07:15:57Z</time>
      </trkpt>
      <trkpt lat="41.7198610" lon="2.9334100">
        <ele>9.4</ele>
        <time>2021-12-20T07:16:00Z</time>
      </trkpt>
      <trkpt lat="41.7197100" lon="2.9333560">
        <ele>9.4</ele>
        <time>2021-12-20T07:16:06Z</time>
      </trkpt>
      <trkpt lat="41.7195270" lon="2.9333100">
        <ele>9.3</ele>
        <time>2021-12-20T07:16:13Z</time>
      </trkpt>
      <trkpt lat="41.7194980" lon="2.9333000">
        <ele>9.3</ele>
        <time>2021-12-20T07:16:14Z</time>
      </trkpt>
      <trkpt lat="41.7193230" lon="2.9332280">
        <ele>9.0</ele>
        <time>2021-12-20T07:16:21Z</time>
      </trkpt>
      <trkpt lat="41.7192710" lon="2.9332060">
        <ele>8.9</ele>
        <time>2021-12-20T07:16:23Z</time>
      </trkpt>
      <trkpt lat="41.7191680" lon="2.9330800">
        <ele>8.5</ele>
        <time>2021-12-20T07:16:28Z</time>
      </trkpt>
      <trkpt lat="41.7191140" lon="2.9328430">
        <ele>8.3</ele>
        <time>2021-12-20T07:16:34Z</time>
      </trkpt>
      <trkpt lat="41.7191040" lon="2.9327840">
        <ele>8.3</ele>
        <time>2021-12-20T07:16:36Z</time>
      </trkpt>
      <trkpt lat="41.7190750" lon="2.9327430">
        <ele>8.3</ele>
        <time>2021-12-20T07:16:38Z</time>
      </trkpt>
      <trkpt lat="41.7189390" lon="2.9326360">
        <ele>8.3</ele>
        <time>2021-12-20T07:16:44Z</time>
      </trkpt>
      <trkpt lat="41.7187340" lon="2.9326170">
        <ele>8.4</ele>
        <time>2021-12-20T07:16:51Z</time>
      </trkpt>
      <trkpt lat="41.7187060" lon="2.9326180">
        <ele>8.4</ele>
        <time>2021-12-20T07:16:52Z</time>
      </trkpt>
      <trkpt lat="41.7185420" lon="2.9326250">
        <ele>8.3</ele>
        <time>2021-12-20T07:16:58Z</time>
      </trkpt>
      <trkpt lat="41.7184360" lon="2.9326120">
        <ele>8.3</ele>
        <time>2021-12-20T07:17:02Z</time>
      </trkpt>
      <trkpt lat="41.7182300" lon="2.9325770">
        <ele>8.2</ele>
        <time>2021-12-20T07:17:10Z</time>
      </trkpt>
      <trkpt lat="41.7180440" lon="2.9326070">
        <ele>8.2</ele>
        <time>2021-12-20T07:17:17Z</time>
      </trkpt>
      <trkpt lat="41.7179930" lon="2.9326050">
        <ele>8.2</ele>
        <time>2021-12-20T07:17:19Z</time>
      </trkpt>
      <trkpt lat="41.7178040" lon="2.9325860">
        <ele>8.1</ele>
        <time>2021-12-20T07:17:26Z</time>
      </trkpt>
      <trkpt lat="41.7176830" lon="2.9326330">
        <ele>8.1</ele>
        <time>2021-12-20T07:17:31Z</time>
      </trkpt>
      <trkpt lat="41.7175220" lon="2.9327670">
        <ele>8.1</ele>
        <time>2021-12-20T07:17:39Z</time>
      </trkpt>
      <trkpt lat="41.7173670" lon="2.9329160">
        <ele>8.1</ele>
        <time>2021-12-20T07:17:46Z</time>
      </trkpt>
      <trkpt lat="41.7173320" lon="2.9329720">
        <ele>8.1</ele>
        <time>2021-12-20T07:17:48Z</time>
      </trkpt>
      <trkpt lat="41.7172180" lon="2.9331350">
        <ele>8.4</ele>
        <time>2021-12-20T07:17:55Z</time>
      </trkpt>
      <trkpt lat="41.7171920" lon="2.9333350">
        <ele>9.1</ele>
        <time>2021-12-20T07:18:01Z</time>
      </trkpt>
      <trkpt lat="41.7171670" lon="2.9335650">
        <ele>10.4</ele>
        <time>2021-12-20T07:18:09Z</time>
      </trkpt>
      <trkpt lat="41.7171760" lon="2.9337350">
        <ele>11.4</ele>
        <time>2021-12-20T07:18:15Z</time>
      </trkpt>
      <trkpt lat="41.7172210" lon="2.9338280">
        <ele>12.1</ele>
        <time>2021-12-20T07:18:19Z</time>
      </trkpt>
      <trkpt lat="41.7172380" lon="2.9338480">
        <ele>12.4</ele>
        <time>2021-12-20T07:18:20Z</time>
      </trkpt>
      <trkpt lat="41.7172960" lon="2.9339280">
        <ele>13.1</ele>
        <time>2021-12-20T07:18:24Z</time>
      </trkpt>
      <trkpt lat="41.7173210" lon="2.9339620">
        <ele>13.5</ele>
        <time>2021-12-20T07:18:26Z</time>
      </trkpt>
      <trkpt lat="41.7174400" lon="2.9341520">
        <ele>15.0</ele>
        <time>2021-12-20T07:18:34Z</time>
      </trkpt>
      <trkpt lat="41.7174380" lon="2.9343460">
        <ele>16.3</ele>
        <time>2021-12-20T07:18:40Z</time>
      </trkpt>
      <trkpt lat="41.7174310" lon="2.9343700">
        <ele>16.4</ele>
        <time>2021-12-20T07:18:41Z</time>
      </trkpt>
      <trkpt lat="41.7173910" lon="2.9344820">
        <ele>16.6</ele>
        <time>2021-12-20T07:18:45Z</time>
      </trkpt>
      <trkpt lat="41.7174200" lon="2.9344830">
        <ele>16.6</ele>
        <time>2021-12-20T07:21:13Z</time>
      </trkpt>
      <trkpt lat="41.7174210" lon="2.9344830">
        <ele>16.6</ele>
        <time>2021-12-20T07:21:14Z</time>
      </trkpt>
      <trkpt lat="41.7174420" lon="2.9344060">
        <ele>16.7</ele>
        <time>2021-12-20T07:21:18Z</time>
      </trkpt>
      <trkpt lat="41.7174530" lon="2.9343240">
        <ele>16.3</ele>
        <time>2021-12-20T07:21:20Z</time>
      </trkpt>
      <trkpt lat="41.7174590" lon="2.9342420">
        <ele>15.8</ele>
        <time>2021-12-20T07:21:22Z</time>
      </trkpt>
      <trkpt lat="41.7174370" lon="2.9341220">
        <ele>14.8</ele>
        <time>2021-12-20T07:21:25Z</time>
      </trkpt>
      <trkpt lat="41.7173880" lon="2.9340740">
        <ele>14.3</ele>
        <time>2021-12-20T07:21:27Z</time>
      </trkpt>
      <trkpt lat="41.7173230" lon="2.9339900">
        <ele>13.6</ele>
        <time>2021-12-20T07:21:30Z</time>
      </trkpt>
      <trkpt lat="41.7172570" lon="2.9338960">
        <ele>12.7</ele>
        <time>2021-12-20T07:21:33Z</time>
      </trkpt>
      <trkpt lat="41.7172050" lon="2.9337870">
        <ele>11.8</ele>
        <time>2021-12-20T07:21:36Z</time>
      </trkpt>
      <trkpt lat="41.7171940" lon="2.9337460">
        <ele>11.5</ele>
        <time>2021-12-20T07:21:37Z</time>
      </trkpt>
      <trkpt lat="41.7171420" lon="2.9336040">
        <ele>10.5</ele>
        <time>2021-12-20T07:21:41Z</time>
      </trkpt>
      <trkpt lat="41.7171430" lon="2.9335560">
        <ele>10.3</ele>
        <time>2021-12-20T07:21:42Z</time>
      </trkpt>
      <trkpt lat="41.7171280" lon="2.9332980">
        <ele>9.0</ele>
        <time>2021-12-20T07:21:48Z</time>
      </trkpt>
      <trkpt lat="41.7171440" lon="2.9332570">
        <ele>8.8</ele>
        <time>2021-12-20T07:21:49Z</time>
      </trkpt>
      <trkpt lat="41.7171800" lon="2.9330360">
        <ele>8.2</ele>
        <time>2021-12-20T07:21:55Z</time>
      </trkpt>
      <trkpt lat="41.7171880" lon="2.9330020">
        <ele>8.2</ele>
        <time>2021-12-20T07:21:56Z</time>
      </trkpt>
      <trkpt lat="41.7172320" lon="2.9329050">
        <ele>8.1</ele>
        <time>2021-12-20T07:21:59Z</time>
      </trkpt>
      <trkpt lat="41.7172510" lon="2.9328400">
        <ele>8.4</ele>
        <time>2021-12-20T07:22:02Z</time>
      </trkpt>
      <trkpt lat="41.7172290" lon="2.9328220">
        <ele>8.4</ele>
        <time>2021-12-20T07:22:03Z</time>
      </trkpt>
      <trkpt lat="41.7171820" lon="2.9327490">
        <ele>8.7</ele>
        <time>2021-12-20T07:22:06Z</time>
      </trkpt>
      <trkpt lat="41.7171450" lon="2.9327220">
        <ele>8.8</ele>
        <time>2021-12-20T07:22:08Z</time>
      </trkpt>
      <trkpt lat="41.7170990" lon="2.9326640">
        <ele>9.2</ele>
        <time>2021-12-20T07:22:11Z</time>
      </trkpt>
      <trkpt lat="41.7170350" lon="2.9326110">
        <ele>9.6</ele>
        <time>2021-12-20T07:22:14Z</time>
      </trkpt>
      <trkpt lat="41.7170150" lon="2.9325910">
        <ele>9.7</ele>
        <time>2021-12-20T07:22:15Z</time>
      </trkpt>
      <trkpt lat="41.7169170" lon="2.9325230">
        <ele>10.7</ele>
        <time>2021-12-20T07:22:20Z</time>
      </trkpt>
      <trkpt lat="41.7169390" lon="2.9324790">
        <ele>10.7</ele>
        <time>2021-12-20T07:22:23Z</time>
      </trkpt>
      <trkpt lat="41.7170350" lon="2.9324310">
        <ele>10.0</ele>
        <time>2021-12-20T07:22:27Z</time>
      </trkpt>
      <trkpt lat="41.7171260" lon="2.9324090">
        <ele>9.8</ele>
        <time>2021-12-20T07:22:30Z</time>
      </trkpt>
      <trkpt lat="41.7173120" lon="2.9323660">
        <ele>9.2</ele>
        <time>2021-12-20T07:22:36Z</time>
      </trkpt>
      <trkpt lat="41.7174050" lon="2.9324050">
        <ele>9.0</ele>
        <time>2021-12-20T07:22:39Z</time>
      </trkpt>
      <trkpt lat="41.7174360" lon="2.9324010">
        <ele>8.9</ele>
        <time>2021-12-20T07:22:40Z</time>
      </trkpt>
      <trkpt lat="41.7175940" lon="2.9323090">
        <ele>8.6</ele>
        <time>2021-12-20T07:22:45Z</time>
      </trkpt>
      <trkpt lat="41.7176880" lon="2.9322920">
        <ele>8.5</ele>
        <time>2021-12-20T07:22:49Z</time>
      </trkpt>
      <trkpt lat="41.7177110" lon="2.9322850">
        <ele>8.5</ele>
        <time>2021-12-20T07:22:50Z</time>
      </trkpt>
      <trkpt lat="41.7177300" lon="2.9322590">
        <ele>8.5</ele>
        <time>2021-12-20T07:22:51Z</time>
      </trkpt>
      <trkpt lat="41.7178110" lon="2.9321900">
        <ele>8.6</ele>
        <time>2021-12-20T07:22:54Z</time>
      </trkpt>
      <trkpt lat="41.7179300" lon="2.9321600">
        <ele>8.6</ele>
        <time>2021-12-20T07:22:58Z</time>
      </trkpt>
      <trkpt lat="41.7180740" lon="2.9321500">
        <ele>8.8</ele>
        <time>2021-12-20T07:23:03Z</time>
      </trkpt>
      <trkpt lat="41.7181620" lon="2.9321210">
        <ele>8.9</ele>
        <time>2021-12-20T07:23:06Z</time>
      </trkpt>
      <trkpt lat="41.7181870" lon="2.9320990">
        <ele>8.9</ele>
        <time>2021-12-20T07:23:07Z</time>
      </trkpt>
      <trkpt lat="41.7182600" lon="2.9320570">
        <ele>9.0</ele>
        <time>2021-12-20T07:23:10Z</time>
      </trkpt>
      <trkpt lat="41.7182860" lon="2.9320480">
        <ele>9.0</ele>
        <time>2021-12-20T07:23:11Z</time>
      </trkpt>
      <trkpt lat="41.7184120" lon="2.9320460">
        <ele>9.1</ele>
        <time>2021-12-20T07:23:16Z</time>
      </trkpt>
      <trkpt lat="41.7184240" lon="2.9320400">
        <ele>9.1</ele>
        <time>2021-12-20T07:23:17Z</time>
      </trkpt>
      <trkpt lat="41.7184320" lon="2.9320400">
        <ele>9.1</ele>
        <time>2021-12-20T07:23:18Z</time>
      </trkpt>
      <trkpt lat="41.7184470" lon="2.9320380">
        <ele>9.2</ele>
        <time>2021-12-20T07:23:19Z</time>
      </trkpt>
      <trkpt lat="41.7184520" lon="2.9320420">
        <ele>9.2</ele>
        <time>2021-12-20T07:23:22Z</time>
      </trkpt>
      <trkpt lat="41.7184560" lon="2.9320020">
        <ele>9.2</ele>
        <time>2021-12-20T07:23:24Z</time>
      </trkpt>
      <trkpt lat="41.7184830" lon="2.9319370">
        <ele>9.3</ele>
        <time>2021-12-20T07:23:26Z</time>
      </trkpt>
      <trkpt lat="41.7185750" lon="2.9317830">
        <ele>9.6</ele>
        <time>2021-12-20T07:23:31Z</time>
      </trkpt>
      <trkpt lat="41.7186280" lon="2.9316640">
        <ele>9.8</ele>
        <time>2021-12-20T07:23:35Z</time>
      </trkpt>
      <trkpt lat="41.7186390" lon="2.9316170">
        <ele>9.8</ele>
        <time>2021-12-20T07:23:36Z</time>
      </trkpt>
      <trkpt lat="41.7186520" lon="2.9315810">
        <ele>9.9</ele>
        <time>2021-12-20T07:23:37Z</time>
      </trkpt>
      <trkpt lat="41.7186940" lon="2.9314840">
        <ele>10.0</ele>
        <time>2021-12-20T07:23:39Z</time>
      </trkpt>
      <trkpt lat="41.7187170" lon="2.9314460">
        <ele>10.0</ele>
        <time>2021-12-20T07:23:40Z</time>
      </trkpt>
      <trkpt lat="41.7187250" lon="2.9314180">
        <ele>10.1</ele>
        <time>2021-12-20T07:23:41Z</time>
      </trkpt>
      <trkpt lat="41.7187160" lon="2.9313570">
        <ele>10.2</ele>
        <time>2021-12-20T07:23:43Z</time>
      </trkpt>
      <trkpt lat="41.7187160" lon="2.9312950">
        <ele>10.2</ele>
        <time>2021-12-20T07:23:45Z</time>
      </trkpt>
      <trkpt lat="41.7187670" lon="2.9312130">
        <ele>10.4</ele>
        <time>2021-12-20T07:23:47Z</time>
      </trkpt>
      <trkpt lat="41.7188180" lon="2.9311460">
        <ele>10.5</ele>
        <time>2021-12-20T07:23:49Z</time>
      </trkpt>
      <trkpt lat="41.7188390" lon="2.9310730">
        <ele>10.6</ele>
        <time>2021-12-20T07:23:52Z</time>
      </trkpt>
      <trkpt lat="41.7188490" lon="2.9310250">
        <ele>10.6</ele>
        <time>2021-12-20T07:23:54Z</time>
      </trkpt>
      <trkpt lat="41.7188810" lon="2.9309630">
        <ele>10.8</ele>
        <time>2021-12-20T07:23:56Z</time>
      </trkpt>
      <trkpt lat="41.7188780" lon="2.9309360">
        <ele>10.8</ele>
        <time>2021-12-20T07:23:57Z</time>
      </trkpt>
      <trkpt lat="41.7188800" lon="2.9308960">
        <ele>10.9</ele>
        <time>2021-12-20T07:23:59Z</time>
      </trkpt>
      <trkpt lat="41.7188800" lon="2.9307920">
        <ele>11.0</ele>
        <time>2021-12-20T07:24:02Z</time>
      </trkpt>
      <trkpt lat="41.7189080" lon="2.9307590">
        <ele>11.1</ele>
        <time>2021-12-20T07:24:03Z</time>
      </trkpt>
      <trkpt lat="41.7189400" lon="2.9306920">
        <ele>11.2</ele>
        <time>2021-12-20T07:24:05Z</time>
      </trkpt>
      <trkpt lat="41.7189400" lon="2.9306550">
        <ele>11.3</ele>
        <time>2021-12-20T07:24:06Z</time>
      </trkpt>
      <trkpt lat="41.7189210" lon="2.9305720">
        <ele>11.4</ele>
        <time>2021-12-20T07:24:08Z</time>
      </trkpt>
      <trkpt lat="41.7188990" lon="2.9305340">
        <ele>11.5</ele>
        <time>2021-12-20T07:24:09Z</time>
      </trkpt>
      <trkpt lat="41.7188950" lon="2.9304730">
        <ele>11.6</ele>
        <time>2021-12-20T07:24:11Z</time>
      </trkpt>
      <trkpt lat="41.7189090" lon="2.9304350">
        <ele>11.7</ele>
        <time>2021-12-20T07:24:12Z</time>
      </trkpt>
      <trkpt lat="41.7190040" lon="2.9302570">
        <ele>11.9</ele>
        <time>2021-12-20T07:24:16Z</time>
      </trkpt>
      <trkpt lat="41.7190630" lon="2.9301660">
        <ele>12.1</ele>
        <time>2021-12-20T07:24:18Z</time>
      </trkpt>
      <trkpt lat="41.7190530" lon="2.9301280">
        <ele>12.1</ele>
        <time>2021-12-20T07:24:19Z</time>
      </trkpt>
      <trkpt lat="41.7190530" lon="2.9300960">
        <ele>12.2</ele>
        <time>2021-12-20T07:24:20Z</time>
      </trkpt>
      <trkpt lat="41.7190630" lon="2.9300250">
        <ele>12.3</ele>
        <time>2021-12-20T07:24:22Z</time>
      </trkpt>
      <trkpt lat="41.7191260" lon="2.9299560">
        <ele>12.5</ele>
        <time>2021-12-20T07:24:24Z</time>
      </trkpt>
      <trkpt lat="41.7191040" lon="2.9299360">
        <ele>12.6</ele>
        <time>2021-12-20T07:24:25Z</time>
      </trkpt>
      <trkpt lat="41.7190710" lon="2.9299250">
        <ele>12.7</ele>
        <time>2021-12-20T07:24:26Z</time>
      </trkpt>
      <trkpt lat="41.7190670" lon="2.9298990">
        <ele>12.7</ele>
        <time>2021-12-20T07:24:27Z</time>
      </trkpt>
      <trkpt lat="41.7190710" lon="2.9298590">
        <ele>12.8</ele>
        <time>2021-12-20T07:24:28Z</time>
      </trkpt>
      <trkpt lat="41.7191010" lon="2.9297760">
        <ele>13.0</ele>
        <time>2021-12-20T07:24:30Z</time>
      </trkpt>
      <trkpt lat="41.7191190" lon="2.9297120">
        <ele>13.2</ele>
        <time>2021-12-20T07:24:32Z</time>
      </trkpt>
      <trkpt lat="41.7191490" lon="2.9295850">
        <ele>13.1</ele>
        <time>2021-12-20T07:24:36Z</time>
      </trkpt>
      <trkpt lat="41.7191750" lon="2.9295530">
        <ele>13.1</ele>
        <time>2021-12-20T07:24:38Z</time>
      </trkpt>
      <trkpt lat="41.7192140" lon="2.9295430">
        <ele>13.0</ele>
        <time>2021-12-20T07:24:40Z</time>
      </trkpt>
      <trkpt lat="41.7193500" lon="2.9294710">
        <ele>12.8</ele>
        <time>2021-12-20T07:24:46Z</time>
      </trkpt>
      <trkpt lat="41.7194560" lon="2.9294100">
        <ele>12.7</ele>
        <time>2021-12-20T07:24:51Z</time>
      </trkpt>
      <trkpt lat="41.7195510" lon="2.9293700">
        <ele>12.6</ele>
        <time>2021-12-20T07:24:54Z</time>
      </trkpt>
      <trkpt lat="41.7195720" lon="2.9293430">
        <ele>12.6</ele>
        <time>2021-12-20T07:24:55Z</time>
      </trkpt>
      <trkpt lat="41.7196140" lon="2.9293060">
        <ele>12.5</ele>
        <time>2021-12-20T07:24:57Z</time>
      </trkpt>
      <trkpt lat="41.7197710" lon="2.9292220">
        <ele>12.4</ele>
        <time>2021-12-20T07:25:03Z</time>
      </trkpt>
      <trkpt lat="41.7199460" lon="2.9291820">
        <ele>12.4</ele>
        <time>2021-12-20T07:25:10Z</time>
      </trkpt>
      <trkpt lat="41.7199750" lon="2.9291710">
        <ele>12.4</ele>
        <time>2021-12-20T07:25:11Z</time>
      </trkpt>
      <trkpt lat="41.7200990" lon="2.9291010">
        <ele>12.4</ele>
        <time>2021-12-20T07:25:16Z</time>
      </trkpt>
      <trkpt lat="41.7202860" lon="2.9291090">
        <ele>12.6</ele>
        <time>2021-12-20T07:25:23Z</time>
      </trkpt>
      <trkpt lat="41.7203180" lon="2.9291020">
        <ele>12.7</ele>
        <time>2021-12-20T07:25:24Z</time>
      </trkpt>
      <trkpt lat="41.7204120" lon="2.9290850">
        <ele>12.8</ele>
        <time>2021-12-20T07:25:28Z</time>
      </trkpt>
      <trkpt lat="41.7204420" lon="2.9290690">
        <ele>12.9</ele>
        <time>2021-12-20T07:25:29Z</time>
      </trkpt>
      <trkpt lat="41.7205050" lon="2.9290440">
        <ele>13.0</ele>
        <time>2021-12-20T07:25:32Z</time>
      </trkpt>
      <trkpt lat="41.7205960" lon="2.9289850">
        <ele>13.2</ele>
        <time>2021-12-20T07:25:36Z</time>
      </trkpt>
      <trkpt lat="41.7206510" lon="2.9289490">
        <ele>13.3</ele>
        <time>2021-12-20T07:25:38Z</time>
      </trkpt>
      <trkpt lat="41.7208330" lon="2.9288660">
        <ele>13.7</ele>
        <time>2021-12-20T07:25:45Z</time>
      </trkpt>
      <trkpt lat="41.7208590" lon="2.9288550">
        <ele>13.8</ele>
        <time>2021-12-20T07:25:46Z</time>
      </trkpt>
      <trkpt lat="41.7210010" lon="2.9287780">
        <ele>14.0</ele>
        <time>2021-12-20T07:25:52Z</time>
      </trkpt>
      <trkpt lat="41.7210870" lon="2.9286900">
        <ele>14.1</ele>
        <time>2021-12-20T07:25:57Z</time>
      </trkpt>
      <trkpt lat="41.7211020" lon="2.9286760">
        <ele>14.1</ele>
        <time>2021-12-20T07:25:58Z</time>
      </trkpt>
      <trkpt lat="41.7211470" lon="2.9286490">
        <ele>14.1</ele>
        <time>2021-12-20T07:26:00Z</time>
      </trkpt>
      <trkpt lat="41.7212060" lon="2.9286330">
        <ele>14.1</ele>
        <time>2021-12-20T07:26:02Z</time>
      </trkpt>
      <trkpt lat="41.7214060" lon="2.9286520">
        <ele>12.8</ele>
        <time>2021-12-20T07:26:09Z</time>
      </trkpt>
      <trkpt lat="41.7214870" lon="2.9285670">
        <ele>12.9</ele>
        <time>2021-12-20T07:26:14Z</time>
      </trkpt>
      <trkpt lat="41.7215480" lon="2.9284860">
        <ele>13.0</ele>
        <time>2021-12-20T07:26:17Z</time>
      </trkpt>
      <trkpt lat="41.7216130" lon="2.9284060">
        <ele>13.1</ele>
        <time>2021-12-20T07:26:20Z</time>
      </trkpt>
      <trkpt lat="41.7216720" lon="2.9283830">
        <ele>13.1</ele>
        <time>2021-12-20T07:26:22Z</time>
      </trkpt>
      <trkpt lat="41.7217440" lon="2.9283330">
        <ele>13.2</ele>
        <time>2021-12-20T07:26:25Z</time>
      </trkpt>
      <trkpt lat="41.7218990" lon="2.9282730">
        <ele>13.4</ele>
        <time>2021-12-20T07:26:31Z</time>
      </trkpt>
      <trkpt lat="41.7221040" lon="2.9282200">
        <ele>13.3</ele>
        <time>2021-12-20T07:26:39Z</time>
      </trkpt>
      <trkpt lat="41.7221280" lon="2.9282080">
        <ele>13.2</ele>
        <time>2021-12-20T07:26:40Z</time>
      </trkpt>
      <trkpt lat="41.7222130" lon="2.9281090">
        <ele>13.0</ele>
        <time>2021-12-20T07:26:44Z</time>
      </trkpt>
      <trkpt lat="41.7223350" lon="2.9280420">
        <ele>12.9</ele>
        <time>2021-12-20T07:26:49Z</time>
      </trkpt>
      <trkpt lat="41.7224390" lon="2.9280870">
        <ele>12.8</ele>
        <time>2021-12-20T07:27:12Z</time>
      </trkpt>
      <trkpt lat="41.7224390" lon="2.9280870">
        <ele>12.8</ele>
        <time>2021-12-20T07:27:14Z</time>
      </trkpt>
      <trkpt lat="41.7225010" lon="2.9280520">
        <ele>12.7</ele>
        <time>2021-12-20T07:27:17Z</time>
      </trkpt>
      <trkpt lat="41.7226830" lon="2.9279510">
        <ele>12.4</ele>
        <time>2021-12-20T07:27:23Z</time>
      </trkpt>
      <trkpt lat="41.7227090" lon="2.9279270">
        <ele>12.3</ele>
        <time>2021-12-20T07:27:24Z</time>
      </trkpt>
      <trkpt lat="41.7228750" lon="2.9278060">
        <ele>12.0</ele>
        <time>2021-12-20T07:27:31Z</time>
      </trkpt>
      <trkpt lat="41.7228950" lon="2.9277840">
        <ele>11.9</ele>
        <time>2021-12-20T07:27:32Z</time>
      </trkpt>
      <trkpt lat="41.7229610" lon="2.9277240">
        <ele>11.9</ele>
        <time>2021-12-20T07:27:35Z</time>
      </trkpt>
      <trkpt lat="41.7230650" lon="2.9276020">
        <ele>11.9</ele>
        <time>2021-12-20T07:27:40Z</time>
      </trkpt>
      <trkpt lat="41.7230840" lon="2.9275710">
        <ele>11.9</ele>
        <time>2021-12-20T07:27:41Z</time>
      </trkpt>
      <trkpt lat="41.7232360" lon="2.9274790">
        <ele>11.9</ele>
        <time>2021-12-20T07:27:47Z</time>
      </trkpt>
      <trkpt lat="41.7234000" lon="2.9273160">
        <ele>12.0</ele>
        <time>2021-12-20T07:27:55Z</time>
      </trkpt>
      <trkpt lat="41.7234420" lon="2.9272790">
        <ele>12.1</ele>
        <time>2021-12-20T07:27:57Z</time>
      </trkpt>
      <trkpt lat="41.7236080" lon="2.9271350">
        <ele>12.3</ele>
        <time>2021-12-20T07:28:04Z</time>
      </trkpt>
      <trkpt lat="41.7236280" lon="2.9271100">
        <ele>12.4</ele>
        <time>2021-12-20T07:28:05Z</time>
      </trkpt>
      <trkpt lat="41.7237510" lon="2.9269830">
        <ele>12.5</ele>
        <time>2021-12-20T07:28:11Z</time>
      </trkpt>
      <trkpt lat="41.7238610" lon="2.9268880">
        <ele>12.5</ele>
        <time>2021-12-20T07:28:17Z</time>
      </trkpt>
      <trkpt lat="41.7239810" lon="2.9267730">
        <ele>12.5</ele>
        <time>2021-12-20T07:28:23Z</time>
      </trkpt>
      <trkpt lat="41.7240980" lon="2.9266170">
        <ele>12.6</ele>
        <time>2021-12-20T07:28:29Z</time>
      </trkpt>
      <trkpt lat="41.7242480" lon="2.9264730">
        <ele>12.8</ele>
        <time>2021-12-20T07:28:36Z</time>
      </trkpt>
      <trkpt lat="41.7243990" lon="2.9263500">
        <ele>13.1</ele>
        <time>2021-12-20T07:28:43Z</time>
      </trkpt>
      <trkpt lat="41.7245710" lon="2.9261850">
        <ele>13.4</ele>
        <time>2021-12-20T07:28:51Z</time>
      </trkpt>
      <trkpt lat="41.7247310" lon="2.9260590">
        <ele>13.6</ele>
        <time>2021-12-20T07:28:58Z</time>
      </trkpt>
      <trkpt lat="41.7247710" lon="2.9260240">
        <ele>13.7</ele>
        <time>2021-12-20T07:29:00Z</time>
      </trkpt>
      <trkpt lat="41.7248990" lon="2.9259150">
        <ele>13.8</ele>
        <time>2021-12-20T07:29:06Z</time>
      </trkpt>
      <trkpt lat="41.7249430" lon="2.9258870">
        <ele>13.8</ele>
        <time>2021-12-20T07:29:08Z</time>
      </trkpt>
      <trkpt lat="41.7250360" lon="2.9258500">
        <ele>13.9</ele>
        <time>2021-12-20T07:29:12Z</time>
      </trkpt>
      <trkpt lat="41.7251340" lon="2.9257930">
        <ele>14.0</ele>
        <time>2021-12-20T07:29:16Z</time>
      </trkpt>
      <trkpt lat="41.7251620" lon="2.9257760">
        <ele>14.0</ele>
        <time>2021-12-20T07:29:17Z</time>
      </trkpt>
      <trkpt lat="41.7252640" lon="2.9257340">
        <ele>14.0</ele>
        <time>2021-12-20T07:29:21Z</time>
      </trkpt>
      <trkpt lat="41.7253180" lon="2.9257220">
        <ele>14.0</ele>
        <time>2021-12-20T07:29:23Z</time>
      </trkpt>
      <trkpt lat="41.7253740" lon="2.9257220">
        <ele>14.0</ele>
        <time>2021-12-20T07:29:25Z</time>
      </trkpt>
      <trkpt lat="41.7254950" lon="2.9257280">
        <ele>14.0</ele>
        <time>2021-12-20T07:29:29Z</time>
      </trkpt>
      <trkpt lat="41.7255220" lon="2.9257230">
        <ele>14.0</ele>
        <time>2021-12-20T07:29:30Z</time>
      </trkpt>
      <trkpt lat="41.7255740" lon="2.9257100">
        <ele>14.0</ele>
        <time>2021-12-20T07:29:32Z</time>
      </trkpt>
      <trkpt lat="41.7256950" lon="2.9256630">
        <ele>14.0</ele>
        <time>2021-12-20T07:29:37Z</time>
      </trkpt>
      <trkpt lat="41.7257220" lon="2.9256560">
        <ele>14.0</ele>
        <time>2021-12-20T07:29:38Z</time>
      </trkpt>
      <trkpt lat="41.7259010" lon="2.9256240">
        <ele>13.8</ele>
        <time>2021-12-20T07:29:45Z</time>
      </trkpt>
      <trkpt lat="41.7259520" lon="2.9256160">
        <ele>13.8</ele>
        <time>2021-12-20T07:29:47Z</time>
      </trkpt>
      <trkpt lat="41.7261560" lon="2.9256940">
        <ele>13.6</ele>
        <time>2021-12-20T07:29:54Z</time>
      </trkpt>
      <trkpt lat="41.7262880" lon="2.9257040">
        <ele>13.6</ele>
        <time>2021-12-20T07:29:59Z</time>
      </trkpt>
      <trkpt lat="41.7264080" lon="2.9257030">
        <ele>13.5</ele>
        <time>2021-12-20T07:30:03Z</time>
      </trkpt>
      <trkpt lat="41.7265670" lon="2.9256980">
        <ele>13.5</ele>
        <time>2021-12-20T07:30:10Z</time>
      </trkpt>
      <trkpt lat="41.7266930" lon="2.9256190">
        <ele>13.4</ele>
        <time>2021-12-20T07:30:17Z</time>
      </trkpt>
      <trkpt lat="41.7268120" lon="2.9254640">
        <ele>13.4</ele>
        <time>2021-12-20T07:30:23Z</time>
      </trkpt>
      <trkpt lat="41.7269220" lon="2.9253580">
        <ele>13.5</ele>
        <time>2021-12-20T07:30:29Z</time>
      </trkpt>
      <trkpt lat="41.7269610" lon="2.9253200">
        <ele>13.5</ele>
        <time>2021-12-20T07:30:35Z</time>
      </trkpt>
      <trkpt lat="41.7269790" lon="2.9253160">
        <ele>13.5</ele>
        <time>2021-12-20T07:30:37Z</time>
      </trkpt>
      <trkpt lat="41.7271130" lon="2.9252170">
        <ele>13.7</ele>
        <time>2021-12-20T07:30:40Z</time>
      </trkpt>
      <trkpt lat="41.7272990" lon="2.9251330">
        <ele>14.0</ele>
        <time>2021-12-20T07:30:46Z</time>
      </trkpt>
      <trkpt lat="41.7273200" lon="2.9251170">
        <ele>14.0</ele>
        <time>2021-12-20T07:30:47Z</time>
      </trkpt>
      <trkpt lat="41.7275260" lon="2.9250880">
        <ele>14.2</ele>
        <time>2021-12-20T07:30:54Z</time>
      </trkpt>
      <trkpt lat="41.7276230" lon="2.9249690">
        <ele>14.6</ele>
        <time>2021-12-20T07:31:00Z</time>
      </trkpt>
      <trkpt lat="41.7277020" lon="2.9247230">
        <ele>15.2</ele>
        <time>2021-12-20T07:31:08Z</time>
      </trkpt>
      <trkpt lat="41.7278100" lon="2.9244950">
        <ele>16.0</ele>
        <time>2021-12-20T07:31:16Z</time>
      </trkpt>
      <trkpt lat="41.7278230" lon="2.9244660">
        <ele>16.2</ele>
        <time>2021-12-20T07:31:17Z</time>
      </trkpt>
      <trkpt lat="41.7279280" lon="2.9242840">
        <ele>16.9</ele>
        <time>2021-12-20T07:31:25Z</time>
      </trkpt>
      <trkpt lat="41.7280460" lon="2.9240900">
        <ele>17.5</ele>
        <time>2021-12-20T07:31:33Z</time>
      </trkpt>
      <trkpt lat="41.7280750" lon="2.9240430">
        <ele>17.7</ele>
        <time>2021-12-20T07:31:35Z</time>
      </trkpt>
      <trkpt lat="41.7281950" lon="2.9238520">
        <ele>18.5</ele>
        <time>2021-12-20T07:31:43Z</time>
      </trkpt>
      <trkpt lat="41.7282170" lon="2.9237980">
        <ele>18.6</ele>
        <time>2021-12-20T07:31:45Z</time>
      </trkpt>
      <trkpt lat="41.7283170" lon="2.9236200">
        <ele>19.2</ele>
        <time>2021-12-20T07:31:52Z</time>
      </trkpt>
      <trkpt lat="41.7283600" lon="2.9235130">
        <ele>19.3</ele>
        <time>2021-12-20T07:31:56Z</time>
      </trkpt>
      <trkpt lat="41.7284130" lon="2.9233710">
        <ele>19.4</ele>
        <time>2021-12-20T07:32:01Z</time>
      </trkpt>
      <trkpt lat="41.7284730" lon="2.9231330">
        <ele>19.5</ele>
        <time>2021-12-20T07:32:09Z</time>
      </trkpt>
      <trkpt lat="41.7285190" lon="2.9229080">
        <ele>19.5</ele>
        <time>2021-12-20T07:32:16Z</time>
      </trkpt>
      <trkpt lat="41.7285250" lon="2.9226370">
        <ele>19.5</ele>
        <time>2021-12-20T07:32:24Z</time>
      </trkpt>
      <trkpt lat="41.7285240" lon="2.9223810">
        <ele>19.2</ele>
        <time>2021-12-20T07:32:31Z</time>
      </trkpt>
      <trkpt lat="41.7285110" lon="2.9221220">
        <ele>19.1</ele>
        <time>2021-12-20T07:32:39Z</time>
      </trkpt>
      <trkpt lat="41.7284840" lon="2.9218760">
        <ele>19.0</ele>
        <time>2021-12-20T07:32:46Z</time>
      </trkpt>
      <trkpt lat="41.7284700" lon="2.9216260">
        <ele>19.0</ele>
        <time>2021-12-20T07:32:54Z</time>
      </trkpt>
      <trkpt lat="41.7284550" lon="2.9215710">
        <ele>19.0</ele>
        <time>2021-12-20T07:32:56Z</time>
      </trkpt>
      <trkpt lat="41.7284570" lon="2.9214280">
        <ele>19.0</ele>
        <time>2021-12-20T07:33:00Z</time>
      </trkpt>
      <trkpt lat="41.7284550" lon="2.9212390">
        <ele>19.0</ele>
        <time>2021-12-20T07:33:05Z</time>
      </trkpt>
      <trkpt lat="41.7284530" lon="2.9209970">
        <ele>18.9</ele>
        <time>2021-12-20T07:33:12Z</time>
      </trkpt>
      <trkpt lat="41.7284520" lon="2.9209670">
        <ele>18.9</ele>
        <time>2021-12-20T07:33:13Z</time>
      </trkpt>
      <trkpt lat="41.7284440" lon="2.9207070">
        <ele>19.0</ele>
        <time>2021-12-20T07:33:20Z</time>
      </trkpt>
      <trkpt lat="41.7284440" lon="2.9206290">
        <ele>19.0</ele>
        <time>2021-12-20T07:33:22Z</time>
      </trkpt>
      <trkpt lat="41.7284340" lon="2.9203590">
        <ele>19.2</ele>
        <time>2021-12-20T07:33:30Z</time>
      </trkpt>
      <trkpt lat="41.7284260" lon="2.9202900">
        <ele>19.2</ele>
        <time>2021-12-20T07:33:32Z</time>
      </trkpt>
      <trkpt lat="41.7284190" lon="2.9202560">
        <ele>19.1</ele>
        <time>2021-12-20T07:33:33Z</time>
      </trkpt>
      <trkpt lat="41.7284250" lon="2.9200530">
        <ele>19.1</ele>
        <time>2021-12-20T07:33:39Z</time>
      </trkpt>
      <trkpt lat="41.7284470" lon="2.9198030">
        <ele>19.0</ele>
        <time>2021-12-20T07:33:46Z</time>
      </trkpt>
      <trkpt lat="41.7284650" lon="2.9197450">
        <ele>18.9</ele>
        <time>2021-12-20T07:33:48Z</time>
      </trkpt>
      <trkpt lat="41.7285110" lon="2.9195760">
        <ele>18.9</ele>
        <time>2021-12-20T07:33:53Z</time>
      </trkpt>
      <trkpt lat="41.7285320" lon="2.9195140">
        <ele>18.9</ele>
        <time>2021-12-20T07:33:55Z</time>
      </trkpt>
      <trkpt lat="41.7285560" lon="2.9194080">
        <ele>18.8</ele>
        <time>2021-12-20T07:33:58Z</time>
      </trkpt>
      <trkpt lat="41.7286520" lon="2.9192880">
        <ele>18.8</ele>
        <time>2021-12-20T07:34:03Z</time>
      </trkpt>
      <trkpt lat="41.7287860" lon="2.9190980">
        <ele>18.9</ele>
        <time>2021-12-20T07:34:11Z</time>
      </trkpt>
      <trkpt lat="41.7289160" lon="2.9189200">
        <ele>19.0</ele>
        <time>2021-12-20T07:34:18Z</time>
      </trkpt>
      <trkpt lat="41.7289340" lon="2.9188930">
        <ele>19.0</ele>
        <time>2021-12-20T07:34:19Z</time>
      </trkpt>
      <trkpt lat="41.7289760" lon="2.9188440">
        <ele>19.0</ele>
        <time>2021-12-20T07:34:21Z</time>
      </trkpt>
      <trkpt lat="41.7289990" lon="2.9187830">
        <ele>19.0</ele>
        <time>2021-12-20T07:35:49Z</time>
      </trkpt>
      <trkpt lat="41.7289990" lon="2.9187830">
        <ele>19.0</ele>
        <time>2021-12-20T07:35:50Z</time>
      </trkpt>
      <trkpt lat="41.7290210" lon="2.9187150">
        <ele>19.0</ele>
        <time>2021-12-20T07:35:54Z</time>
      </trkpt>
      <trkpt lat="41.7291290" lon="2.9185900">
        <ele>18.5</ele>
        <time>2021-12-20T07:35:59Z</time>
      </trkpt>
      <trkpt lat="41.7293000" lon="2.9185340">
        <ele>18.0</ele>
        <time>2021-12-20T07:36:04Z</time>
      </trkpt>
      <trkpt lat="41.7293290" lon="2.9185440">
        <ele>17.9</ele>
        <time>2021-12-20T07:36:05Z</time>
      </trkpt>
      <trkpt lat="41.7293660" lon="2.9185850">
        <ele>17.9</ele>
        <time>2021-12-20T07:36:07Z</time>
      </trkpt>
      <trkpt lat="41.7293710" lon="2.9186450">
        <ele>17.9</ele>
        <time>2021-12-20T07:36:09Z</time>
      </trkpt>
      <trkpt lat="41.7293620" lon="2.9187110">
        <ele>17.9</ele>
        <time>2021-12-20T07:36:11Z</time>
      </trkpt>
      <trkpt lat="41.7293460" lon="2.9189730">
        <ele>18.1</ele>
        <time>2021-12-20T07:36:19Z</time>
      </trkpt>
      <trkpt lat="41.7293410" lon="2.9191320">
        <ele>18.1</ele>
        <time>2021-12-20T07:36:23Z</time>
      </trkpt>
      <trkpt lat="41.7293490" lon="2.9191650">
        <ele>18.1</ele>
        <time>2021-12-20T07:36:24Z</time>
      </trkpt>
      <trkpt lat="41.7293580" lon="2.9191930">
        <ele>18.1</ele>
        <time>2021-12-20T07:36:25Z</time>
      </trkpt>
      <trkpt lat="41.7293730" lon="2.9192870">
        <ele>18.1</ele>
        <time>2021-12-20T07:36:28Z</time>
      </trkpt>
      <trkpt lat="41.7293810" lon="2.9193560">
        <ele>18.0</ele>
        <time>2021-12-20T07:36:30Z</time>
      </trkpt>
      <trkpt lat="41.7293870" lon="2.9193890">
        <ele>18.0</ele>
        <time>2021-12-20T07:36:31Z</time>
      </trkpt>
      <trkpt lat="41.7294220" lon="2.9194900">
        <ele>17.9</ele>
        <time>2021-12-20T07:36:34Z</time>
      </trkpt>
      <trkpt lat="41.7294410" lon="2.9195650">
        <ele>17.8</ele>
        <time>2021-12-20T07:36:36Z</time>
      </trkpt>
      <trkpt lat="41.7294610" lon="2.9196380">
        <ele>17.7</ele>
        <time>2021-12-20T07:36:38Z</time>
      </trkpt>
      <trkpt lat="41.7294890" lon="2.9197080">
        <ele>17.6</ele>
        <time>2021-12-20T07:36:40Z</time>
      </trkpt>
      <trkpt lat="41.7295080" lon="2.9198250">
        <ele>17.4</ele>
        <time>2021-12-20T07:36:43Z</time>
      </trkpt>
      <trkpt lat="41.7295120" lon="2.9198980">
        <ele>17.3</ele>
        <time>2021-12-20T07:36:45Z</time>
      </trkpt>
      <trkpt lat="41.7295050" lon="2.9201530">
        <ele>17.0</ele>
        <time>2021-12-20T07:36:52Z</time>
      </trkpt>
      <trkpt lat="41.7295020" lon="2.9202290">
        <ele>16.9</ele>
        <time>2021-12-20T07:36:54Z</time>
      </trkpt>
      <trkpt lat="41.7294780" lon="2.9204770">
        <ele>16.5</ele>
        <time>2021-12-20T07:37:01Z</time>
      </trkpt>
      <trkpt lat="41.7294980" lon="2.9206970">
        <ele>16.2</ele>
        <time>2021-12-20T07:37:07Z</time>
      </trkpt>
      <trkpt lat="41.7295060" lon="2.9207300">
        <ele>16.1</ele>
        <time>2021-12-20T07:37:08Z</time>
      </trkpt>
      <trkpt lat="41.7295270" lon="2.9209460">
        <ele>16.0</ele>
        <time>2021-12-20T07:37:14Z</time>
      </trkpt>
      <trkpt lat="41.7295810" lon="2.9211040">
        <ele>16.0</ele>
        <time>2021-12-20T07:37:19Z</time>
      </trkpt>
      <trkpt lat="41.7296040" lon="2.9211720">
        <ele>16.0</ele>
        <time>2021-12-20T07:37:21Z</time>
      </trkpt>
      <trkpt lat="41.7296440" lon="2.9213770">
        <ele>16.0</ele>
        <time>2021-12-20T07:37:27Z</time>
      </trkpt>
      <trkpt lat="41.7297020" lon="2.9215560">
        <ele>16.1</ele>
        <time>2021-12-20T07:37:32Z</time>
      </trkpt>
      <trkpt lat="41.7297090" lon="2.9216210">
        <ele>16.1</ele>
        <time>2021-12-20T07:37:34Z</time>
      </trkpt>
      <trkpt lat="41.7297970" lon="2.9218000">
        <ele>16.0</ele>
        <time>2021-12-20T07:37:40Z</time>
      </trkpt>
      <trkpt lat="41.7299140" lon="2.9217970">
        <ele>15.9</ele>
        <time>2021-12-20T07:37:45Z</time>
      </trkpt>
      <trkpt lat="41.7300380" lon="2.9218650">
        <ele>15.8</ele>
        <time>2021-12-20T07:37:50Z</time>
      </trkpt>
      <trkpt lat="41.7301580" lon="2.9219410">
        <ele>15.6</ele>
        <time>2021-12-20T07:37:55Z</time>
      </trkpt>
      <trkpt lat="41.7302000" lon="2.9219760">
        <ele>15.5</ele>
        <time>2021-12-20T07:37:57Z</time>
      </trkpt>
      <trkpt lat="41.7303210" lon="2.9221170">
        <ele>15.3</ele>
        <time>2021-12-20T07:38:02Z</time>
      </trkpt>
      <trkpt lat="41.7304060" lon="2.9221900">
        <ele>15.1</ele>
        <time>2021-12-20T07:38:05Z</time>
      </trkpt>
      <trkpt lat="41.7304220" lon="2.9222150">
        <ele>15.1</ele>
        <time>2021-12-20T07:38:06Z</time>
      </trkpt>
      <trkpt lat="41.7304380" lon="2.9222980">
        <ele>15.1</ele>
        <time>2021-12-20T07:38:09Z</time>
      </trkpt>
      <trkpt lat="41.7304730" lon="2.9223960">
        <ele>15.0</ele>
        <time>2021-12-20T07:38:12Z</time>
      </trkpt>
      <trkpt lat="41.7304940" lon="2.9224610">
        <ele>15.0</ele>
        <time>2021-12-20T07:38:14Z</time>
      </trkpt>
      <trkpt lat="41.7306250" lon="2.9225750">
        <ele>14.9</ele>
        <time>2021-12-20T07:38:20Z</time>
      </trkpt>
      <trkpt lat="41.7307860" lon="2.9226830">
        <ele>14.9</ele>
        <time>2021-12-20T07:38:27Z</time>
      </trkpt>
      <trkpt lat="41.7308780" lon="2.9227590">
        <ele>14.9</ele>
        <time>2021-12-20T07:38:31Z</time>
      </trkpt>
      <trkpt lat="41.7309650" lon="2.9229180">
        <ele>14.7</ele>
        <time>2021-12-20T07:38:36Z</time>
      </trkpt>
      <trkpt lat="41.7311000" lon="2.9230850">
        <ele>14.8</ele>
        <time>2021-12-20T07:38:42Z</time>
      </trkpt>
      <trkpt lat="41.7311910" lon="2.9231340">
        <ele>15.1</ele>
        <time>2021-12-20T07:38:46Z</time>
      </trkpt>
      <trkpt lat="41.7312040" lon="2.9231590">
        <ele>15.1</ele>
        <time>2021-12-20T07:38:47Z</time>
      </trkpt>
      <trkpt lat="41.7312360" lon="2.9232890">
        <ele>15.3</ele>
        <time>2021-12-20T07:38:51Z</time>
      </trkpt>
      <trkpt lat="41.7312520" lon="2.9233570">
        <ele>15.4</ele>
        <time>2021-12-20T07:38:53Z</time>
      </trkpt>
      <trkpt lat="41.7313170" lon="2.9235320">
        <ele>15.6</ele>
        <time>2021-12-20T07:38:59Z</time>
      </trkpt>
      <trkpt lat="41.7313150" lon="2.9234740">
        <ele>15.7</ele>
        <time>2021-12-20T07:40:19Z</time>
      </trkpt>
      <trkpt lat="41.7313150" lon="2.9234740">
        <ele>15.7</ele>
        <time>2021-12-20T07:40:20Z</time>
      </trkpt>
      <trkpt lat="41.7313240" lon="2.9235840">
        <ele>15.8</ele>
        <time>2021-12-20T07:40:24Z</time>
      </trkpt>
      <trkpt lat="41.7313560" lon="2.9238420">
        <ele>15.9</ele>
        <time>2021-12-20T07:40:29Z</time>
      </trkpt>
      <trkpt lat="41.7313570" lon="2.9238920">
        <ele>15.9</ele>
        <time>2021-12-20T07:40:30Z</time>
      </trkpt>
      <trkpt lat="41.7313730" lon="2.9241320">
        <ele>15.8</ele>
        <time>2021-12-20T07:40:36Z</time>
      </trkpt>
      <trkpt lat="41.7314000" lon="2.9242030">
        <ele>15.8</ele>
        <time>2021-12-20T07:40:38Z</time>
      </trkpt>
      <trkpt lat="41.7314340" lon="2.9242640">
        <ele>15.8</ele>
        <time>2021-12-20T07:40:40Z</time>
      </trkpt>
      <trkpt lat="41.7314690" lon="2.9243230">
        <ele>15.8</ele>
        <time>2021-12-20T07:40:42Z</time>
      </trkpt>
      <trkpt lat="41.7315120" lon="2.9243770">
        <ele>15.7</ele>
        <time>2021-12-20T07:40:44Z</time>
      </trkpt>
      <trkpt lat="41.7315580" lon="2.9244330">
        <ele>15.7</ele>
        <time>2021-12-20T07:40:46Z</time>
      </trkpt>
      <trkpt lat="41.7315950" lon="2.9244860">
        <ele>15.6</ele>
        <time>2021-12-20T07:40:48Z</time>
      </trkpt>
      <trkpt lat="41.7316130" lon="2.9245210">
        <ele>15.6</ele>
        <time>2021-12-20T07:40:49Z</time>
      </trkpt>
      <trkpt lat="41.7316210" lon="2.9246070">
        <ele>15.3</ele>
        <time>2021-12-20T07:40:51Z</time>
      </trkpt>
      <trkpt lat="41.7315830" lon="2.9247470">
        <ele>15.0</ele>
        <time>2021-12-20T07:40:55Z</time>
      </trkpt>
      <trkpt lat="41.7314540" lon="2.9249480">
        <ele>14.9</ele>
        <time>2021-12-20T07:41:02Z</time>
      </trkpt>
      <trkpt lat="41.7312840" lon="2.9250810">
        <ele>14.8</ele>
        <time>2021-12-20T07:41:08Z</time>
      </trkpt>
      <trkpt lat="41.7310910" lon="2.9250560">
        <ele>14.9</ele>
        <time>2021-12-20T07:41:15Z</time>
      </trkpt>
      <trkpt lat="41.7310650" lon="2.9250500">
        <ele>15.0</ele>
        <time>2021-12-20T07:41:16Z</time>
      </trkpt>
      <trkpt lat="41.7308930" lon="2.9250280">
        <ele>15.7</ele>
        <time>2021-12-20T07:41:23Z</time>
      </trkpt>
      <trkpt lat="41.7307570" lon="2.9250740">
        <ele>16.2</ele>
        <time>2021-12-20T07:41:29Z</time>
      </trkpt>
      <trkpt lat="41.7306490" lon="2.9250910">
        <ele>16.1</ele>
        <time>2021-12-20T07:41:33Z</time>
      </trkpt>
      <trkpt lat="41.7306040" lon="2.9251000">
        <ele>15.9</ele>
        <time>2021-12-20T07:41:35Z</time>
      </trkpt>
      <trkpt lat="41.7305520" lon="2.9251080">
        <ele>15.7</ele>
        <time>2021-12-20T07:41:37Z</time>
      </trkpt>
      <trkpt lat="41.7304270" lon="2.9251310">
        <ele>15.0</ele>
        <time>2021-12-20T07:41:42Z</time>
      </trkpt>
      <trkpt lat="41.7303190" lon="2.9251650">
        <ele>14.6</ele>
        <time>2021-12-20T07:41:46Z</time>
      </trkpt>
      <trkpt lat="41.7301260" lon="2.9252390">
        <ele>14.0</ele>
        <time>2021-12-20T07:41:53Z</time>
      </trkpt>
      <trkpt lat="41.7301050" lon="2.9252380">
        <ele>14.0</ele>
        <time>2021-12-20T07:41:54Z</time>
      </trkpt>
      <trkpt lat="41.7300300" lon="2.9252390">
        <ele>13.9</ele>
        <time>2021-12-20T07:41:57Z</time>
      </trkpt>
      <trkpt lat="41.7299020" lon="2.9252900">
        <ele>14.0</ele>
        <time>2021-12-20T07:42:02Z</time>
      </trkpt>
      <trkpt lat="41.7297650" lon="2.9253680">
        <ele>14.0</ele>
        <time>2021-12-20T07:42:07Z</time>
      </trkpt>
      <trkpt lat="41.7295940" lon="2.9254440">
        <ele>14.0</ele>
        <time>2021-12-20T07:42:14Z</time>
      </trkpt>
      <trkpt lat="41.7294410" lon="2.9255130">
        <ele>13.9</ele>
        <time>2021-12-20T07:42:20Z</time>
      </trkpt>
      <trkpt lat="41.7292730" lon="2.9256090">
        <ele>13.8</ele>
        <time>2021-12-20T07:42:27Z</time>
      </trkpt>
      <trkpt lat="41.7291380" lon="2.9256720">
        <ele>13.7</ele>
        <time>2021-12-20T07:42:33Z</time>
      </trkpt>
      <trkpt lat="41.7289590" lon="2.9257420">
        <ele>13.6</ele>
        <time>2021-12-20T07:42:40Z</time>
      </trkpt>
      <trkpt lat="41.7287750" lon="2.9258380">
        <ele>13.5</ele>
        <time>2021-12-20T07:42:47Z</time>
      </trkpt>
      <trkpt lat="41.7286910" lon="2.9258820">
        <ele>13.5</ele>
        <time>2021-12-20T07:42:50Z</time>
      </trkpt>
      <trkpt lat="41.7285460" lon="2.9259520">
        <ele>13.5</ele>
        <time>2021-12-20T07:42:55Z</time>
      </trkpt>
      <trkpt lat="41.7283500" lon="2.9260490">
        <ele>13.4</ele>
        <time>2021-12-20T07:43:02Z</time>
      </trkpt>
      <trkpt lat="41.7282400" lon="2.9261180">
        <ele>13.4</ele>
        <time>2021-12-20T07:43:06Z</time>
      </trkpt>
      <trkpt lat="41.7281910" lon="2.9261500">
        <ele>13.4</ele>
        <time>2021-12-20T07:43:08Z</time>
      </trkpt>
      <trkpt lat="41.7280620" lon="2.9262330">
        <ele>13.4</ele>
        <time>2021-12-20T07:43:13Z</time>
      </trkpt>
      <trkpt lat="41.7279020" lon="2.9263830">
        <ele>13.4</ele>
        <time>2021-12-20T07:43:20Z</time>
      </trkpt>
      <trkpt lat="41.7278570" lon="2.9264220">
        <ele>13.3</ele>
        <time>2021-12-20T07:43:22Z</time>
      </trkpt>
      <trkpt lat="41.7277720" lon="2.9264830">
        <ele>13.3</ele>
        <time>2021-12-20T07:43:26Z</time>
      </trkpt>
      <trkpt lat="41.7276990" lon="2.9265420">
        <ele>13.3</ele>
        <time>2021-12-20T07:43:29Z</time>
      </trkpt>
      <trkpt lat="41.7275070" lon="2.9266350">
        <ele>13.3</ele>
        <time>2021-12-20T07:43:36Z</time>
      </trkpt>
      <trkpt lat="41.7274550" lon="2.9266750">
        <ele>13.3</ele>
        <time>2021-12-20T07:43:38Z</time>
      </trkpt>
      <trkpt lat="41.7272830" lon="2.9268100">
        <ele>13.7</ele>
        <time>2021-12-20T07:43:46Z</time>
      </trkpt>
      <trkpt lat="41.7272240" lon="2.9268630">
        <ele>13.8</ele>
        <time>2021-12-20T07:43:49Z</time>
      </trkpt>
      <trkpt lat="41.7271390" lon="2.9269360">
        <ele>14.1</ele>
        <time>2021-12-20T07:43:53Z</time>
      </trkpt>
      <trkpt lat="41.7270780" lon="2.9269980">
        <ele>14.3</ele>
        <time>2021-12-20T07:43:56Z</time>
      </trkpt>
      <trkpt lat="41.7269180" lon="2.9271510">
        <ele>14.5</ele>
        <time>2021-12-20T07:44:03Z</time>
      </trkpt>
      <trkpt lat="41.7268990" lon="2.9271740">
        <ele>14.6</ele>
        <time>2021-12-20T07:44:04Z</time>
      </trkpt>
      <trkpt lat="41.7267480" lon="2.9273180">
        <ele>14.8</ele>
        <time>2021-12-20T07:44:11Z</time>
      </trkpt>
      <trkpt lat="41.7265800" lon="2.9274380">
        <ele>15.0</ele>
        <time>2021-12-20T07:44:19Z</time>
      </trkpt>
      <trkpt lat="41.7265620" lon="2.9274580">
        <ele>15.0</ele>
        <time>2021-12-20T07:44:20Z</time>
      </trkpt>
      <trkpt lat="41.7265010" lon="2.9275080">
        <ele>15.1</ele>
        <time>2021-12-20T07:44:23Z</time>
      </trkpt>
      <trkpt lat="41.7263730" lon="2.9276210">
        <ele>15.2</ele>
        <time>2021-12-20T07:44:29Z</time>
      </trkpt>
      <trkpt lat="41.7263170" lon="2.9276850">
        <ele>15.3</ele>
        <time>2021-12-20T07:44:32Z</time>
      </trkpt>
      <trkpt lat="41.7262340" lon="2.9278080">
        <ele>15.4</ele>
        <time>2021-12-20T07:44:37Z</time>
      </trkpt>
      <trkpt lat="41.7261870" lon="2.9279190">
        <ele>15.5</ele>
        <time>2021-12-20T07:44:41Z</time>
      </trkpt>
      <trkpt lat="41.7260880" lon="2.9280790">
        <ele>15.8</ele>
        <time>2021-12-20T07:44:47Z</time>
      </trkpt>
      <trkpt lat="41.7260500" lon="2.9282840">
        <ele>16.2</ele>
        <time>2021-12-20T07:44:53Z</time>
      </trkpt>
      <trkpt lat="41.7260760" lon="2.9285460">
        <ele>16.8</ele>
        <time>2021-12-20T07:45:00Z</time>
      </trkpt>
      <trkpt lat="41.7260770" lon="2.9285790">
        <ele>16.9</ele>
        <time>2021-12-20T07:45:01Z</time>
      </trkpt>
      <trkpt lat="41.7261000" lon="2.9287870">
        <ele>17.1</ele>
        <time>2021-12-20T07:45:07Z</time>
      </trkpt>
      <trkpt lat="41.7261420" lon="2.9289080">
        <ele>17.4</ele>
        <time>2021-12-20T07:45:11Z</time>
      </trkpt>
      <trkpt lat="41.7261560" lon="2.9289730">
        <ele>17.5</ele>
        <time>2021-12-20T07:45:13Z</time>
      </trkpt>
      <trkpt lat="41.7261630" lon="2.9290060">
        <ele>17.6</ele>
        <time>2021-12-20T07:45:14Z</time>
      </trkpt>
      <trkpt lat="41.7262000" lon="2.9291400">
        <ele>17.9</ele>
        <time>2021-12-20T07:45:18Z</time>
      </trkpt>
      <trkpt lat="41.7262060" lon="2.9292040">
        <ele>18.0</ele>
        <time>2021-12-20T07:45:20Z</time>
      </trkpt>
      <trkpt lat="41.7262640" lon="2.9294420">
        <ele>18.5</ele>
        <time>2021-12-20T07:45:27Z</time>
      </trkpt>
      <trkpt lat="41.7262900" lon="2.9296670">
        <ele>19.0</ele>
        <time>2021-12-20T07:45:34Z</time>
      </trkpt>
      <trkpt lat="41.7262830" lon="2.9298630">
        <ele>19.5</ele>
        <time>2021-12-20T07:45:40Z</time>
      </trkpt>
      <trkpt lat="41.7262530" lon="2.9301260">
        <ele>20.0</ele>
        <time>2021-12-20T07:45:48Z</time>
      </trkpt>
      <trkpt lat="41.7262250" lon="2.9301910">
        <ele>20.1</ele>
        <time>2021-12-20T07:45:50Z</time>
      </trkpt>
      <trkpt lat="41.7261140" lon="2.9304150">
        <ele>20.4</ele>
        <time>2021-12-20T07:45:58Z</time>
      </trkpt>
      <trkpt lat="41.7259900" lon="2.9305900">
        <ele>20.5</ele>
        <time>2021-12-20T07:46:05Z</time>
      </trkpt>
      <trkpt lat="41.7259480" lon="2.9306380">
        <ele>20.5</ele>
        <time>2021-12-20T07:46:07Z</time>
      </trkpt>
      <trkpt lat="41.7258120" lon="2.9308210">
        <ele>19.9</ele>
        <time>2021-12-20T07:46:14Z</time>
      </trkpt>
      <trkpt lat="41.7257780" lon="2.9308760">
        <ele>20.0</ele>
        <time>2021-12-20T07:46:16Z</time>
      </trkpt>
      <trkpt lat="41.7257270" lon="2.9309560">
        <ele>20.3</ele>
        <time>2021-12-20T07:46:19Z</time>
      </trkpt>
      <trkpt lat="41.7256490" lon="2.9310600">
        <ele>20.6</ele>
        <time>2021-12-20T07:46:23Z</time>
      </trkpt>
      <trkpt lat="41.7255710" lon="2.9311610">
        <ele>20.7</ele>
        <time>2021-12-20T07:46:27Z</time>
      </trkpt>
      <trkpt lat="41.7254370" lon="2.9313290">
        <ele>21.0</ele>
        <time>2021-12-20T07:46:34Z</time>
      </trkpt>
      <trkpt lat="41.7254050" lon="2.9313810">
        <ele>21.1</ele>
        <time>2021-12-20T07:46:36Z</time>
      </trkpt>
      <trkpt lat="41.7252810" lon="2.9315430">
        <ele>21.4</ele>
        <time>2021-12-20T07:46:43Z</time>
      </trkpt>
      <trkpt lat="41.7252020" lon="2.9316430">
        <ele>21.6</ele>
        <time>2021-12-20T07:46:47Z</time>
      </trkpt>
      <trkpt lat="41.7250910" lon="2.9317900">
        <ele>21.8</ele>
        <time>2021-12-20T07:46:53Z</time>
      </trkpt>
      <trkpt lat="41.7250190" lon="2.9319150">
        <ele>22.1</ele>
        <time>2021-12-20T07:46:58Z</time>
      </trkpt>
      <trkpt lat="41.7249900" lon="2.9320070">
        <ele>22.2</ele>
        <time>2021-12-20T07:47:01Z</time>
      </trkpt>
      <trkpt lat="41.7249120" lon="2.9322600">
        <ele>22.8</ele>
        <time>2021-12-20T07:47:08Z</time>
      </trkpt>
      <trkpt lat="41.7249030" lon="2.9322870">
        <ele>22.9</ele>
        <time>2021-12-20T07:47:09Z</time>
      </trkpt>
      <trkpt lat="41.7248750" lon="2.9325340">
        <ele>23.6</ele>
        <time>2021-12-20T07:47:16Z</time>
      </trkpt>
      <trkpt lat="41.7247550" lon="2.9326760">
        <ele>23.6</ele>
        <time>2021-12-20T07:47:21Z</time>
      </trkpt>
      <trkpt lat="41.7246040" lon="2.9327190">
        <ele>22.6</ele>
        <time>2021-12-20T07:47:26Z</time>
      </trkpt>
      <trkpt lat="41.7244220" lon="2.9327330">
        <ele>21.3</ele>
        <time>2021-12-20T07:47:32Z</time>
      </trkpt>
      <trkpt lat="41.7242350" lon="2.9327140">
        <ele>20.0</ele>
        <time>2021-12-20T07:47:38Z</time>
      </trkpt>
      <trkpt lat="41.7241750" lon="2.9327060">
        <ele>19.6</ele>
        <time>2021-12-20T07:47:40Z</time>
      </trkpt>
      <trkpt lat="41.7240850" lon="2.9326980">
        <ele>19.1</ele>
        <time>2021-12-20T07:47:43Z</time>
      </trkpt>
      <trkpt lat="41.7239970" lon="2.9326560">
        <ele>18.4</ele>
        <time>2021-12-20T07:47:46Z</time>
      </trkpt>
      <trkpt lat="41.7239380" lon="2.9326300">
        <ele>18.0</ele>
        <time>2021-12-20T07:47:48Z</time>
      </trkpt>
      <trkpt lat="41.7237690" lon="2.9324820">
        <ele>16.5</ele>
        <time>2021-12-20T07:47:54Z</time>
      </trkpt>
      <trkpt lat="41.7236530" lon="2.9322680">
        <ele>15.2</ele>
        <time>2021-12-20T07:48:01Z</time>
      </trkpt>
      <trkpt lat="41.7235990" lon="2.9321620">
        <ele>14.6</ele>
        <time>2021-12-20T07:48:04Z</time>
      </trkpt>
      <trkpt lat="41.7234630" lon="2.9319760">
        <ele>13.4</ele>
        <time>2021-12-20T07:48:12Z</time>
      </trkpt>
      <trkpt lat="41.7234230" lon="2.9319260">
        <ele>13.1</ele>
        <time>2021-12-20T07:48:14Z</time>
      </trkpt>
      <trkpt lat="41.7233090" lon="2.9317400">
        <ele>12.2</ele>
        <time>2021-12-20T07:48:20Z</time>
      </trkpt>
      <trkpt lat="41.7232880" lon="2.9316970">
        <ele>12.2</ele>
        <time>2021-12-20T07:48:21Z</time>
      </trkpt>
      <trkpt lat="41.7231650" lon="2.9315070">
        <ele>11.8</ele>
        <time>2021-12-20T07:48:28Z</time>
      </trkpt>
      <trkpt lat="41.7231330" lon="2.9314420">
        <ele>11.5</ele>
        <time>2021-12-20T07:48:30Z</time>
      </trkpt>
      <trkpt lat="41.7230530" lon="2.9313040">
        <ele>10.9</ele>
        <time>2021-12-20T07:48:35Z</time>
      </trkpt>
      <trkpt lat="41.7229560" lon="2.9310790">
        <ele>10.4</ele>
        <time>2021-12-20T07:48:41Z</time>
      </trkpt>
      <trkpt lat="41.7229400" lon="2.9310550">
        <ele>10.3</ele>
        <time>2021-12-20T07:48:42Z</time>
      </trkpt>
      <trkpt lat="41.7228370" lon="2.9308900">
        <ele>10.2</ele>
        <time>2021-12-20T07:48:48Z</time>
      </trkpt>
      <trkpt lat="41.7227520" lon="2.9307270">
        <ele>10.6</ele>
        <time>2021-12-20T07:48:54Z</time>
      </trkpt>
      <trkpt lat="41.7227760" lon="2.9305800">
        <ele>11.0</ele>
        <time>2021-12-20T07:48:58Z</time>
      </trkpt>
      <trkpt lat="41.7227920" lon="2.9305520">
        <ele>11.0</ele>
        <time>2021-12-20T07:48:59Z</time>
      </trkpt>
      <trkpt lat="41.7229170" lon="2.9303670">
        <ele>11.2</ele>
        <time>2021-12-20T07:49:05Z</time>
      </trkpt>
      <trkpt lat="41.7229660" lon="2.9303300">
        <ele>11.3</ele>
        <time>2021-12-20T07:49:07Z</time>
      </trkpt>
      <trkpt lat="41.7231380" lon="2.9301730">
        <ele>11.5</ele>
        <time>2021-12-20T07:49:15Z</time>
      </trkpt>
      <trkpt lat="41.7232740" lon="2.9300590">
        <ele>11.6</ele>
        <time>2021-12-20T07:49:21Z</time>
      </trkpt>
      <trkpt lat="41.7232970" lon="2.9300450">
        <ele>11.6</ele>
        <time>2021-12-20T07:49:22Z</time>
      </trkpt>
      <trkpt lat="41.7234240" lon="2.9299630">
        <ele>11.7</ele>
        <time>2021-12-20T07:49:27Z</time>
      </trkpt>
      <trkpt lat="41.7231810" lon="2.9302070">
        <ele>11.6</ele>
        <time>2021-12-20T07:05:36Z</time>
      </trkpt>
      <trkpt lat="41.7231690" lon="2.9302110">
        <ele>11.6</ele>
        <time>2021-12-20T07:05:38Z</time>
      </trkpt>
      <trkpt lat="41.7231680" lon="2.9301950">
        <ele>11.5</ele>
        <time>2021-12-20T07:05:41Z</time>
      </trkpt>
      <trkpt lat="41.7231660" lon="2.9301910">
        <ele>11.5</ele>
        <time>2021-12-20T07:05:42Z</time>
      </trkpt>
      <trkpt lat="41.7231590" lon="2.9301860">
        <ele>11.5</ele>
        <time>2021-12-20T07:05:44Z</time>
      </trkpt>
      <trkpt lat="41.7231520" lon="2.9301830">
        <ele>11.5</ele>
        <time>2021-12-20T07:05:45Z</time>
      </trkpt>
      <trkpt lat="41.7231360" lon="2.9301910">
        <ele>11.5</ele>
        <time>2021-12-20T07:05:46Z</time>
      </trkpt>
      <trkpt lat="41.7231240" lon="2.9302150">
        <ele>11.5</ele>
        <time>2021-12-20T07:05:48Z</time>
      </trkpt>
      <trkpt lat="41.7231030" lon="2.9302410">
        <ele>11.4</ele>
        <time>2021-12-20T07:05:49Z</time>
      </trkpt>
      <trkpt lat="41.7230710" lon="2.9302700">
        <ele>11.4</ele>
        <time>2021-12-20T07:05:51Z</time>
      </trkpt>
      <trkpt lat="41.7230370" lon="2.9303030">
        <ele>11.3</ele>
        <time>2021-12-20T07:05:53Z</time>
      </trkpt>
      <trkpt lat="41.7230030" lon="2.9303210">
        <ele>11.3</ele>
        <time>2021-12-20T07:05:54Z</time>
      </trkpt>
      <trkpt lat="41.7229680" lon="2.9303510">
        <ele>11.2</ele>
        <time>2021-12-20T07:05:56Z</time>
      </trkpt>
      <trkpt lat="41.7229370" lon="2.9303850">
        <ele>11.2</ele>
        <time>2021-12-20T07:05:57Z</time>
      </trkpt>
      <trkpt lat="41.7229270" lon="2.9303970">
        <ele>11.2</ele>
        <time>2021-12-20T07:05:58Z</time>
      </trkpt>
      <trkpt lat="41.7228950" lon="2.9304280">
        <ele>11.2</ele>
        <time>2021-12-20T07:06:00Z</time>
      </trkpt>
      <trkpt lat="41.7228560" lon="2.9304750">
        <ele>11.1</ele>
        <time>2021-12-20T07:06:02Z</time>
      </trkpt>
      <trkpt lat="41.7228210" lon="2.9305160">
        <ele>11.1</ele>
        <time>2021-12-20T07:06:03Z</time>
      </trkpt>
      <trkpt lat="41.7227910" lon="2.9305810">
        <ele>11.0</ele>
        <time>2021-12-20T07:06:04Z</time>
      </trkpt>
      <trkpt lat="41.7227780" lon="2.9306270">
        <ele>10.9</ele>
        <time>2021-12-20T07:06:05Z</time>
      </trkpt>
      <trkpt lat="41.7227790" lon="2.9306970">
        <ele>10.9</ele>
        <time>2021-12-20T07:06:07Z</time>
      </trkpt>
      <trkpt lat="41.7227860" lon="2.9307600">
        <ele>10.4</ele>
        <time>2021-12-20T07:06:08Z</time>
      </trkpt>
      <trkpt lat="41.7228000" lon="2.9308000">
        <ele>10.4</ele>
        <time>2021-12-20T07:06:09Z</time>
      </trkpt>
      <trkpt lat="41.7228160" lon="2.9308380">
        <ele>10.5</ele>
        <time>2021-12-20T07:06:10Z</time>
      </trkpt>
      <trkpt lat="41.7228320" lon="2.9308870">
        <ele>10.5</ele>
        <time>2021-12-20T07:06:12Z</time>
      </trkpt>
      <trkpt lat="41.7228420" lon="2.9309230">
        <ele>10.5</ele>
        <time>2021-12-20T07:06:13Z</time>
      </trkpt>
      <trkpt lat="41.7228480" lon="2.9309790">
        <ele>10.4</ele>
        <time>2021-12-20T07:06:14Z</time>
      </trkpt>
      <trkpt lat="41.7228470" lon="2.9310000">
        <ele>10.4</ele>
        <time>2021-12-20T07:06:15Z</time>
      </trkpt>
      <trkpt lat="41.7228220" lon="2.9310470">
        <ele>10.4</ele>
        <time>2021-12-20T07:06:17Z</time>
      </trkpt>
      <trkpt lat="41.7228040" lon="2.9310740">
        <ele>10.5</ele>
        <time>2021-12-20T07:06:18Z</time>
      </trkpt>
      <trkpt lat="41.7227960" lon="2.9310860">
        <ele>10.6</ele>
        <time>2021-12-20T07:06:19Z</time>
      </trkpt>
      <trkpt lat="41.7227770" lon="2.9311150">
        <ele>10.7</ele>
        <time>2021-12-20T07:06:21Z</time>
      </trkpt>
      <trkpt lat="41.7227660" lon="2.9311540">
        <ele>10.8</ele>
        <time>2021-12-20T07:06:22Z</time>
      </trkpt>
      <trkpt lat="41.7227640" lon="2.9312050">
        <ele>10.8</ele>
        <time>2021-12-20T07:06:23Z</time>
      </trkpt>
      <trkpt lat="41.7227650" lon="2.9312240">
        <ele>10.8</ele>
        <time>2021-12-20T07:06:24Z</time>
      </trkpt>
      <trkpt lat="41.7227810" lon="2.9312730">
        <ele>10.8</ele>
        <time>2021-12-20T07:06:25Z</time>
      </trkpt>
      <trkpt lat="41.7227890" lon="2.9312920">
        <ele>10.8</ele>
        <time>2021-12-20T07:06:26Z</time>
      </trkpt>
      <trkpt lat="41.7228100" lon="2.9313410">
        <ele>10.9</ele>
        <time>2021-12-20T07:06:28Z</time>
      </trkpt>
      <trkpt lat="41.7228410" lon="2.9313920">
        <ele>10.9</ele>
        <time>2021-12-20T07:06:30Z</time>
      </trkpt>
      <trkpt lat="41.7228590" lon="2.9314200">
        <ele>10.9</ele>
        <time>2021-12-20T07:06:31Z</time>
      </trkpt>
      <trkpt lat="41.7228860" lon="2.9314500">
        <ele>10.9</ele>
        <time>2021-12-20T07:06:32Z</time>
      </trkpt>
      <trkpt lat="41.7229120" lon="2.9314830">
        <ele>10.9</ele>
        <time>2021-12-20T07:06:33Z</time>
      </trkpt>
      <trkpt lat="41.7229400" lon="2.9315130">
        <ele>10.9</ele>
        <time>2021-12-20T07:06:34Z</time>
      </trkpt>
      <trkpt lat="41.7229770" lon="2.9315590">
        <ele>10.9</ele>
        <time>2021-12-20T07:06:35Z</time>
      </trkpt>
      <trkpt lat="41.7230060" lon="2.9315940">
        <ele>10.9</ele>
        <time>2021-12-20T07:06:36Z</time>
      </trkpt>
      <trkpt lat="41.7230400" lon="2.9316280">
        <ele>10.9</ele>
        <time>2021-12-20T07:06:37Z</time>
      </trkpt>
      <trkpt lat="41.7230720" lon="2.9316740">
        <ele>10.9</ele>
        <time>2021-12-20T07:06:38Z</time>
      </trkpt>
      <trkpt lat="41.7230890" lon="2.9317300">
        <ele>10.9</ele>
        <time>2021-12-20T07:06:40Z</time>
      </trkpt>
      <trkpt lat="41.7230820" lon="2.9317840">
        <ele>10.9</ele>
        <time>2021-12-20T07:06:41Z</time>
      </trkpt>
      <trkpt lat="41.7230630" lon="2.9318270">
        <ele>10.9</ele>
        <time>2021-12-20T07:06:42Z</time>
      </trkpt>
      <trkpt lat="41.7230380" lon="2.9318690">
        <ele>10.8</ele>
        <time>2021-12-20T07:06:44Z</time>
      </trkpt>
      <trkpt lat="41.7230150" lon="2.9319030">
        <ele>10.8</ele>
        <time>2021-12-20T07:06:45Z</time>
      </trkpt>
      <trkpt lat="41.7229830" lon="2.9319380">
        <ele>10.8</ele>
        <time>2021-12-20T07:06:46Z</time>
      </trkpt>
      <trkpt lat="41.7229520" lon="2.9319560">
        <ele>10.7</ele>
        <time>2021-12-20T07:06:47Z</time>
      </trkpt>
      <trkpt lat="41.7229200" lon="2.9319640">
        <ele>10.7</ele>
        <time>2021-12-20T07:06:48Z</time>
      </trkpt>
      <trkpt lat="41.7228770" lon="2.9319900">
        <ele>10.7</ele>
        <time>2021-12-20T07:06:50Z</time>
      </trkpt>
      <trkpt lat="41.7228510" lon="2.9320050">
        <ele>10.7</ele>
        <time>2021-12-20T07:06:51Z</time>
      </trkpt>
      <trkpt lat="41.7228260" lon="2.9320210">
        <ele>10.7</ele>
        <time>2021-12-20T07:06:52Z</time>
      </trkpt>
      <trkpt lat="41.7227970" lon="2.9320400">
        <ele>10.7</ele>
        <time>2021-12-20T07:06:53Z</time>
      </trkpt>
      <trkpt lat="41.7227590" lon="2.9320550">
        <ele>10.7</ele>
        <time>2021-12-20T07:06:54Z</time>
      </trkpt>
      <trkpt lat="41.7227030" lon="2.9320470">
        <ele>10.6</ele>
        <time>2021-12-20T07:06:56Z</time>
      </trkpt>
      <trkpt lat="41.7226730" lon="2.9320610">
        <ele>10.6</ele>
        <time>2021-12-20T07:06:57Z</time>
      </trkpt>
      <trkpt lat="41.7226430" lon="2.9320810">
        <ele>10.6</ele>
        <time>2021-12-20T07:06:58Z</time>
      </trkpt>
      <trkpt lat="41.7226040" lon="2.9321060">
        <ele>10.6</ele>
        <time>2021-12-20T07:06:59Z</time>
      </trkpt>
      <trkpt lat="41.7225760" lon="2.9321290">
        <ele>10.6</ele>
        <time>2021-12-20T07:07:00Z</time>
      </trkpt>
      <trkpt lat="41.7225470" lon="2.9321490">
        <ele>10.6</ele>
        <time>2021-12-20T07:07:01Z</time>
      </trkpt>
      <trkpt lat="41.7225190" lon="2.9321670">
        <ele>10.6</ele>
        <time>2021-12-20T07:07:02Z</time>
      </trkpt>
      <trkpt lat="41.7224880" lon="2.9321810">
        <ele>10.6</ele>
        <time>2021-12-20T07:07:03Z</time>
      </trkpt>
      <trkpt lat="41.7224560" lon="2.9321990">
        <ele>10.6</ele>
        <time>2021-12-20T07:07:05Z</time>
      </trkpt>
      <trkpt lat="41.7224310" lon="2.9322150">
        <ele>10.6</ele>
        <time>2021-12-20T07:07:06Z</time>
      </trkpt>
      <trkpt lat="41.7224070" lon="2.9322300">
        <ele>10.6</ele>
        <time>2021-12-20T07:07:07Z</time>
      </trkpt>
      <trkpt lat="41.7223700" lon="2.9322530">
        <ele>10.6</ele>
        <time>2021-12-20T07:07:09Z</time>
      </trkpt>
      <trkpt lat="41.7223350" lon="2.9322830">
        <ele>10.6</ele>
        <time>2021-12-20T07:07:10Z</time>
      </trkpt>
      <trkpt lat="41.7223050" lon="2.9323140">
        <ele>10.6</ele>
        <time>2021-12-20T07:07:11Z</time>
      </trkpt>
      <trkpt lat="41.7222950" lon="2.9323240">
        <ele>10.6</ele>
        <time>2021-12-20T07:07:12Z</time>
      </trkpt>
      <trkpt lat="41.7222740" lon="2.9323450">
        <ele>10.5</ele>
        <time>2021-12-20T07:07:13Z</time>
      </trkpt>
      <trkpt lat="41.7222530" lon="2.9323650">
        <ele>10.5</ele>
        <time>2021-12-20T07:07:15Z</time>
      </trkpt>
      <trkpt lat="41.7222270" lon="2.9323900">
        <ele>10.5</ele>
        <time>2021-12-20T07:07:16Z</time>
      </trkpt>
      <trkpt lat="41.7222160" lon="2.9324000">
        <ele>10.5</ele>
        <time>2021-12-20T07:07:17Z</time>
      </trkpt>
      <trkpt lat="41.7221810" lon="2.9324340">
        <ele>10.4</ele>
        <time>2021-12-20T07:07:18Z</time>
      </trkpt>
      <trkpt lat="41.7221670" lon="2.9324460">
        <ele>10.4</ele>
        <time>2021-12-20T07:07:19Z</time>
      </trkpt>
      <trkpt lat="41.7221220" lon="2.9324810">
        <ele>10.4</ele>
        <time>2021-12-20T07:07:21Z</time>
      </trkpt>
      <trkpt lat="41.7221060" lon="2.9324930">
        <ele>10.4</ele>
        <time>2021-12-20T07:07:22Z</time>
      </trkpt>
      <trkpt lat="41.7220900" lon="2.9325060">
        <ele>10.4</ele>
        <time>2021-12-20T07:07:23Z</time>
      </trkpt>
      <trkpt lat="41.7220560" lon="2.9325350">
        <ele>10.3</ele>
        <time>2021-12-20T07:07:24Z</time>
      </trkpt>
      <trkpt lat="41.7220440" lon="2.9325450">
        <ele>10.3</ele>
        <time>2021-12-20T07:07:25Z</time>
      </trkpt>
      <trkpt lat="41.7220200" lon="2.9325650">
        <ele>10.3</ele>
        <time>2021-12-20T07:07:26Z</time>
      </trkpt>
      <trkpt lat="41.7219890" lon="2.9325920">
        <ele>10.2</ele>
        <time>2021-12-20T07:07:27Z</time>
      </trkpt>
      <trkpt lat="41.7219640" lon="2.9326130">
        <ele>10.2</ele>
        <time>2021-12-20T07:07:28Z</time>
      </trkpt>
      <trkpt lat="41.7219390" lon="2.9326310">
        <ele>10.2</ele>
        <time>2021-12-20T07:07:29Z</time>
      </trkpt>
      <trkpt lat="41.7219130" lon="2.9326520">
        <ele>10.1</ele>
        <time>2021-12-20T07:07:31Z</time>
      </trkpt>
      <trkpt lat="41.7218820" lon="2.9326800">
        <ele>10.1</ele>
        <time>2021-12-20T07:07:32Z</time>
      </trkpt>
      <trkpt lat="41.7218560" lon="2.9326990">
        <ele>10.1</ele>
        <time>2021-12-20T07:07:33Z</time>
      </trkpt>
      <trkpt lat="41.7218310" lon="2.9327210">
        <ele>10.0</ele>
        <time>2021-12-20T07:07:34Z</time>
      </trkpt>
      <trkpt lat="41.7218090" lon="2.9327430">
        <ele>10.0</ele>
        <time>2021-12-20T07:07:35Z</time>
      </trkpt>
      <trkpt lat="41.7217830" lon="2.9327740">
        <ele>10.0</ele>
        <time>2021-12-20T07:07:36Z</time>
      </trkpt>
      <trkpt lat="41.7217630" lon="2.9327980">
        <ele>10.0</ele>
        <time>2021-12-20T07:07:37Z</time>
      </trkpt>
      <trkpt lat="41.7217340" lon="2.9328360">
        <ele>9.9</ele>
        <time>2021-12-20T07:07:39Z</time>
      </trkpt>
      <trkpt lat="41.7217110" lon="2.9328700">
        <ele>9.9</ele>
        <time>2021-12-20T07:07:40Z</time>
      </trkpt>
      <trkpt lat="41.7217030" lon="2.9328810">
        <ele>9.9</ele>
        <time>2021-12-20T07:07:41Z</time>
      </trkpt>
      <trkpt lat="41.7216870" lon="2.9329120">
        <ele>9.9</ele>
        <time>2021-12-20T07:07:42Z</time>
      </trkpt>
      <trkpt lat="41.7216730" lon="2.9329370">
        <ele>9.9</ele>
        <time>2021-12-20T07:07:43Z</time>
      </trkpt>
      <trkpt lat="41.7216540" lon="2.9329680">
        <ele>9.9</ele>
        <time>2021-12-20T07:07:45Z</time>
      </trkpt>
      <trkpt lat="41.7216320" lon="2.9330070">
        <ele>9.9</ele>
        <time>2021-12-20T07:07:46Z</time>
      </trkpt>
      <trkpt lat="41.7216220" lon="2.9330360">
        <ele>9.8</ele>
        <time>2021-12-20T07:07:47Z</time>
      </trkpt>
      <trkpt lat="41.7216120" lon="2.9330690">
        <ele>9.8</ele>
        <time>2021-12-20T07:07:49Z</time>
      </trkpt>
      <trkpt lat="41.7215930" lon="2.9331060">
        <ele>9.8</ele>
        <time>2021-12-20T07:07:50Z</time>
      </trkpt>
      <trkpt lat="41.7215780" lon="2.9331300">
        <ele>9.8</ele>
        <time>2021-12-20T07:07:51Z</time>
      </trkpt>
      <trkpt lat="41.7215510" lon="2.9331670">
        <ele>9.8</ele>
        <time>2021-12-20T07:07:53Z</time>
      </trkpt>
      <trkpt lat="41.7215270" lon="2.9332000">
        <ele>9.8</ele>
        <time>2021-12-20T07:07:54Z</time>
      </trkpt>
      <trkpt lat="41.7215090" lon="2.9332290">
        <ele>9.8</ele>
        <time>2021-12-20T07:07:55Z</time>
      </trkpt>
      <trkpt lat="41.7214840" lon="2.9332690">
        <ele>9.8</ele>
        <time>2021-12-20T07:07:56Z</time>
      </trkpt>
      <trkpt lat="41.7214770" lon="2.9332810">
        <ele>9.8</ele>
        <time>2021-12-20T07:07:57Z</time>
      </trkpt>
      <trkpt lat="41.7214560" lon="2.9333100">
        <ele>9.8</ele>
        <time>2021-12-20T07:07:58Z</time>
      </trkpt>
      <trkpt lat="41.7214290" lon="2.9333320">
        <ele>9.8</ele>
        <time>2021-12-20T07:07:59Z</time>
      </trkpt>
      <trkpt lat="41.7214200" lon="2.9333360">
        <ele>9.8</ele>
        <time>2021-12-20T07:08:00Z</time>
      </trkpt>
      <trkpt lat="41.7213840" lon="2.9333620">
        <ele>9.8</ele>
        <time>2021-12-20T07:08:02Z</time>
      </trkpt>
      <trkpt lat="41.7213710" lon="2.9333750">
        <ele>9.8</ele>
        <time>2021-12-20T07:08:03Z</time>
      </trkpt>
      <trkpt lat="41.7213480" lon="2.9333950">
        <ele>9.8</ele>
        <time>2021-12-20T07:08:04Z</time>
      </trkpt>
      <trkpt lat="41.7213130" lon="2.9334230">
        <ele>9.8</ele>
        <time>2021-12-20T07:08:05Z</time>
      </trkpt>
      <trkpt lat="41.7213000" lon="2.9334320">
        <ele>9.8</ele>
        <time>2021-12-20T07:08:06Z</time>
      </trkpt>
      <trkpt lat="41.7212700" lon="2.9334650">
        <ele>9.8</ele>
        <time>2021-12-20T07:08:07Z</time>
      </trkpt>
      <trkpt lat="41.7212580" lon="2.9334780">
        <ele>9.8</ele>
        <time>2021-12-20T07:08:08Z</time>
      </trkpt>
      <trkpt lat="41.7212270" lon="2.9335100">
        <ele>9.8</ele>
        <time>2021-12-20T07:08:09Z</time>
      </trkpt>
      <trkpt lat="41.7212170" lon="2.9335200">
        <ele>9.8</ele>
        <time>2021-12-20T07:08:10Z</time>
      </trkpt>
      <trkpt lat="41.7211940" lon="2.9335400">
        <ele>9.8</ele>
        <time>2021-12-20T07:08:11Z</time>
      </trkpt>
      <trkpt lat="41.7211470" lon="2.9335720">
        <ele>9.8</ele>
        <time>2021-12-20T07:08:13Z</time>
      </trkpt>
      <trkpt lat="41.7211300" lon="2.9335820">
        <ele>9.8</ele>
        <time>2021-12-20T07:08:14Z</time>
      </trkpt>
      <trkpt lat="41.7211140" lon="2.9335920">
        <ele>9.8</ele>
        <time>2021-12-20T07:08:15Z</time>
      </trkpt>
      <trkpt lat="41.7210280" lon="2.9334940">
        <ele>9.8</ele>
        <time>2021-12-20T07:08:16Z</time>
      </trkpt>
      <trkpt lat="41.7209960" lon="2.9334940">
        <ele>9.8</ele>
        <time>2021-12-20T07:08:17Z</time>
      </trkpt>
      <trkpt lat="41.7209590" lon="2.9335110">
        <ele>9.8</ele>
        <time>2021-12-20T07:08:18Z</time>
      </trkpt>
      <trkpt lat="41.7209470" lon="2.9335180">
        <ele>9.8</ele>
        <time>2021-12-20T07:08:19Z</time>
      </trkpt>
      <trkpt lat="41.7209210" lon="2.9335310">
        <ele>9.8</ele>
        <time>2021-12-20T07:08:20Z</time>
      </trkpt>
      <trkpt lat="41.7209120" lon="2.9335210">
        <ele>9.8</ele>
        <time>2021-12-20T07:08:21Z</time>
      </trkpt>
      <trkpt lat="41.7208760" lon="2.9335350">
        <ele>9.8</ele>
        <time>2021-12-20T07:08:23Z</time>
      </trkpt>
      <trkpt lat="41.7208350" lon="2.9335520">
        <ele>9.8</ele>
        <time>2021-12-20T07:08:24Z</time>
      </trkpt>
      <trkpt lat="41.7208190" lon="2.9335590">
        <ele>9.8</ele>
        <time>2021-12-20T07:08:25Z</time>
      </trkpt>
      <trkpt lat="41.7208060" lon="2.9336210">
        <ele>9.8</ele>
        <time>2021-12-20T07:08:26Z</time>
      </trkpt>
      <trkpt lat="41.7207820" lon="2.9336850">
        <ele>9.8</ele>
        <time>2021-12-20T07:08:28Z</time>
      </trkpt>
      <trkpt lat="41.7207470" lon="2.9337190">
        <ele>9.8</ele>
        <time>2021-12-20T07:08:29Z</time>
      </trkpt>
      <trkpt lat="41.7207080" lon="2.9337570">
        <ele>9.8</ele>
        <time>2021-12-20T07:08:31Z</time>
      </trkpt>
      <trkpt lat="41.7206810" lon="2.9337650">
        <ele>9.7</ele>
        <time>2021-12-20T07:08:32Z</time>
      </trkpt>
      <trkpt lat="41.7206350" lon="2.9337620">
        <ele>9.7</ele>
        <time>2021-12-20T07:08:34Z</time>
      </trkpt>
      <trkpt lat="41.7206500" lon="2.9337400">
        <ele>9.7</ele>
        <time>2021-12-20T07:08:35Z</time>
      </trkpt>
      <trkpt lat="41.7206910" lon="2.9337210">
        <ele>9.7</ele>
        <time>2021-12-20T07:08:36Z</time>
      </trkpt>
      <trkpt lat="41.7206370" lon="2.9337370">
        <ele>9.7</ele>
        <time>2021-12-20T07:08:37Z</time>
      </trkpt>
      <trkpt lat="41.7205810" lon="2.9337490">
        <ele>9.7</ele>
        <time>2021-12-20T07:08:38Z</time>
      </trkpt>
      <trkpt lat="41.7205430" lon="2.9337570">
        <ele>9.6</ele>
        <time>2021-12-20T07:08:39Z</time>
      </trkpt>
      <trkpt lat="41.7205020" lon="2.9337730">
        <ele>9.6</ele>
        <time>2021-12-20T07:08:40Z</time>
      </trkpt>
      <trkpt lat="41.7204670" lon="2.9338050">
        <ele>9.6</ele>
        <time>2021-12-20T07:08:41Z</time>
      </trkpt>
      <trkpt lat="41.7204240" lon="2.9338470">
        <ele>9.6</ele>
        <time>2021-12-20T07:08:43Z</time>
      </trkpt>
      <trkpt lat="41.7204030" lon="2.9338750">
        <ele>9.6</ele>
        <time>2021-12-20T07:08:44Z</time>
      </trkpt>
      <trkpt lat="41.7203840" lon="2.9339370">
        <ele>9.6</ele>
        <time>2021-12-20T07:08:46Z</time>
      </trkpt>
      <trkpt lat="41.7203800" lon="2.9339850">
        <ele>9.7</ele>
        <time>2021-12-20T07:08:47Z</time>
      </trkpt>
      <trkpt lat="41.7203690" lon="2.9340390">
        <ele>9.8</ele>
        <time>2021-12-20T07:08:48Z</time>
      </trkpt>
      <trkpt lat="41.7203680" lon="2.9340790">
        <ele>9.8</ele>
        <time>2021-12-20T07:08:49Z</time>
      </trkpt>
      <trkpt lat="41.7203830" lon="2.9341260">
        <ele>9.9</ele>
        <time>2021-12-20T07:08:50Z</time>
      </trkpt>
      <trkpt lat="41.7203950" lon="2.9341610">
        <ele>9.9</ele>
        <time>2021-12-20T07:08:51Z</time>
      </trkpt>
      <trkpt lat="41.7204130" lon="2.9341970">
        <ele>10.0</ele>
        <time>2021-12-20T07:08:53Z</time>
      </trkpt>
      <trkpt lat="41.7204340" lon="2.9342330">
        <ele>10.1</ele>
        <time>2021-12-20T07:08:54Z</time>
      </trkpt>
      <trkpt lat="41.7204500" lon="2.9342630">
        <ele>10.2</ele>
        <time>2021-12-20T07:08:55Z</time>
      </trkpt>
      <trkpt lat="41.7204700" lon="2.9343060">
        <ele>10.3</ele>
        <time>2021-12-20T07:08:56Z</time>
      </trkpt>
      <trkpt lat="41.7204830" lon="2.9343400">
        <ele>10.4</ele>
        <time>2021-12-20T07:08:58Z</time>
      </trkpt>
      <trkpt lat="41.7205120" lon="2.9343670">
        <ele>10.6</ele>
        <time>2021-12-20T07:08:59Z</time>
      </trkpt>
      <trkpt lat="41.7205560" lon="2.9343950">
        <ele>10.7</ele>
        <time>2021-12-20T07:09:01Z</time>
      </trkpt>
      <trkpt lat="41.7205770" lon="2.9344200">
        <ele>10.9</ele>
        <time>2021-12-20T07:09:02Z</time>
      </trkpt>
      <trkpt lat="41.7206030" lon="2.9344650">
        <ele>11.1</ele>
        <time>2021-12-20T07:09:03Z</time>
      </trkpt>
      <trkpt lat="41.7206230" lon="2.9345210">
        <ele>11.3</ele>
        <time>2021-12-20T07:09:04Z</time>
      </trkpt>
      <trkpt lat="41.7206300" lon="2.9345480">
        <ele>11.4</ele>
        <time>2021-12-20T07:09:05Z</time>
      </trkpt>
      <trkpt lat="41.7206380" lon="2.9345950">
        <ele>11.6</ele>
        <time>2021-12-20T07:09:07Z</time>
      </trkpt>
      <trkpt lat="41.7206410" lon="2.9346320">
        <ele>11.7</ele>
        <time>2021-12-20T07:09:08Z</time>
      </trkpt>
      <trkpt lat="41.7206420" lon="2.9346680">
        <ele>11.8</ele>
        <time>2021-12-20T07:09:09Z</time>
      </trkpt>
      <trkpt lat="41.7206270" lon="2.9347440">
        <ele>12.1</ele>
        <time>2021-12-20T07:09:10Z</time>
      </trkpt>
      <trkpt lat="41.7206220" lon="2.9347700">
        <ele>12.2</ele>
        <time>2021-12-20T07:09:11Z</time>
      </trkpt>
      <trkpt lat="41.7206100" lon="2.9348390">
        <ele>12.5</ele>
        <time>2021-12-20T07:09:13Z</time>
      </trkpt>
      <trkpt lat="41.7206080" lon="2.9348800">
        <ele>12.7</ele>
        <time>2021-12-20T07:09:14Z</time>
      </trkpt>
      <trkpt lat="41.7206240" lon="2.9349590">
        <ele>13.0</ele>
        <time>2021-12-20T07:09:15Z</time>
      </trkpt>
      <trkpt lat="41.7206290" lon="2.9350050">
        <ele>13.2</ele>
        <time>2021-12-20T07:09:17Z</time>
      </trkpt>
      <trkpt lat="41.7206290" lon="2.9350240">
        <ele>13.3</ele>
        <time>2021-12-20T07:09:18Z</time>
      </trkpt>
      <trkpt lat="41.7206240" lon="2.9350470">
        <ele>13.4</ele>
        <time>2021-12-20T07:09:19Z</time>
      </trkpt>
      <trkpt lat="41.7206240" lon="2.9350700">
        <ele>13.5</ele>
        <time>2021-12-20T07:09:20Z</time>
      </trkpt>
      <trkpt lat="41.7206280" lon="2.9351070">
        <ele>13.6</ele>
        <time>2021-12-20T07:09:21Z</time>
      </trkpt>
      <trkpt lat="41.7206300" lon="2.9351220">
        <ele>13.7</ele>
        <time>2021-12-20T07:09:22Z</time>
      </trkpt>
      <trkpt lat="41.7206340" lon="2.9351380">
        <ele>13.8</ele>
        <time>2021-12-20T07:09:23Z</time>
      </trkpt>
      <trkpt lat="41.7206400" lon="2.9351580">
        <ele>13.9</ele>
        <time>2021-12-20T07:09:24Z</time>
      </trkpt>
      <trkpt lat="41.7206460" lon="2.9352000">
        <ele>14.0</ele>
        <time>2021-12-20T07:09:26Z</time>
      </trkpt>
      <trkpt lat="41.7206450" lon="2.9352550">
        <ele>14.2</ele>
        <time>2021-12-20T07:09:29Z</time>
      </trkpt>
    </trkseg>
  </trk>
</gpx>
